<?xml version="1.0" encoding="UTF-8" standalone="no" ?>
<gpx xmlns="http://www.topografix.com/GPX/1/1" xmlns:xsi="http://www.w3.org/2001/XMLSchema-instance" xsi:schemaLocation="http://www.topografix.com/GPX/1/1 http://www.topografix.com/GPX/1/1/gpx.xsd" version="1.1" creator="VisuGPX - https://www.visugpx.com">
  <metadata>
    <name>trail malemort du comtat</name>
    <desc><![CDATA[essai parcours trail]]></desc>
  </metadata>
  <trk>
    <name><![CDATA[GAU GALINE2:30:47 PM]]></name>
    <trkseg>
      <trkpt lat="44.02018" lon="5.15996">
        <ele>73.2</ele>
        <time>2015-12-12T09:13:33Z</time>
      </trkpt>
      <trkpt lat="44.02018" lon="5.16">
        <ele>73.2</ele>
        <time>2015-12-12T09:13:34Z</time>
      </trkpt>
      <trkpt lat="44.0202" lon="5.16005">
        <ele>78.48</ele>
        <time>2015-12-12T09:13:40Z</time>
      </trkpt>
      <trkpt lat="44.0202" lon="5.16005">
        <ele>83.29</ele>
        <time>2015-12-12T09:13:41Z</time>
      </trkpt>
      <trkpt lat="44.0202" lon="5.16005">
        <ele>88.1</ele>
        <time>2015-12-12T09:13:42Z</time>
      </trkpt>
      <trkpt lat="44.0202" lon="5.16006">
        <ele>92.42</ele>
        <time>2015-12-12T09:13:43Z</time>
      </trkpt>
      <trkpt lat="44.0202" lon="5.16006">
        <ele>96.75</ele>
        <time>2015-12-12T09:13:44Z</time>
      </trkpt>
      <trkpt lat="44.0202" lon="5.16006">
        <ele>101.08</ele>
        <time>2015-12-12T09:13:45Z</time>
      </trkpt>
      <trkpt lat="44.0202" lon="5.16006">
        <ele>104.92</ele>
        <time>2015-12-12T09:13:46Z</time>
      </trkpt>
      <trkpt lat="44.0202" lon="5.16007">
        <ele>109.25</ele>
        <time>2015-12-12T09:13:47Z</time>
      </trkpt>
      <trkpt lat="44.0202" lon="5.16007">
        <ele>113.09</ele>
        <time>2015-12-12T09:13:48Z</time>
      </trkpt>
      <trkpt lat="44.02021" lon="5.16008">
        <ele>116.46</ele>
        <time>2015-12-12T09:13:49Z</time>
      </trkpt>
      <trkpt lat="44.02021" lon="5.16009">
        <ele>119.82</ele>
        <time>2015-12-12T09:13:50Z</time>
      </trkpt>
      <trkpt lat="44.02021" lon="5.1601">
        <ele>123.19</ele>
        <time>2015-12-12T09:13:51Z</time>
      </trkpt>
      <trkpt lat="44.02021" lon="5.1601">
        <ele>126.55</ele>
        <time>2015-12-12T09:13:52Z</time>
      </trkpt>
      <trkpt lat="44.02021" lon="5.1601">
        <ele>129.43</ele>
        <time>2015-12-12T09:13:53Z</time>
      </trkpt>
      <trkpt lat="44.02021" lon="5.1601">
        <ele>132.8</ele>
        <time>2015-12-12T09:13:54Z</time>
      </trkpt>
      <trkpt lat="44.02021" lon="5.16011">
        <ele>138.09</ele>
        <time>2015-12-12T09:13:56Z</time>
      </trkpt>
      <trkpt lat="44.0202" lon="5.16012">
        <ele>143.37</ele>
        <time>2015-12-12T09:13:58Z</time>
      </trkpt>
      <trkpt lat="44.0202" lon="5.16012">
        <ele>148.18</ele>
        <time>2015-12-12T09:14:00Z</time>
      </trkpt>
      <trkpt lat="44.0202" lon="5.16012">
        <ele>152.99</ele>
        <time>2015-12-12T09:14:02Z</time>
      </trkpt>
      <trkpt lat="44.0202" lon="5.16012">
        <ele>156.83</ele>
        <time>2015-12-12T09:14:04Z</time>
      </trkpt>
      <trkpt lat="44.0202" lon="5.16012">
        <ele>161.16</ele>
        <time>2015-12-12T09:14:06Z</time>
      </trkpt>
      <trkpt lat="44.0202" lon="5.16012">
        <ele>164.52</ele>
        <time>2015-12-12T09:14:08Z</time>
      </trkpt>
      <trkpt lat="44.02019" lon="5.16012">
        <ele>167.89</ele>
        <time>2015-12-12T09:14:10Z</time>
      </trkpt>
      <trkpt lat="44.02019" lon="5.16013">
        <ele>170.77</ele>
        <time>2015-12-12T09:14:12Z</time>
      </trkpt>
      <trkpt lat="44.02019" lon="5.16013">
        <ele>175.1</ele>
        <time>2015-12-12T09:14:15Z</time>
      </trkpt>
      <trkpt lat="44.02019" lon="5.16013">
        <ele>178.46</ele>
        <time>2015-12-12T09:14:18Z</time>
      </trkpt>
      <trkpt lat="44.02019" lon="5.16013">
        <ele>181.83</ele>
        <time>2015-12-12T09:14:21Z</time>
      </trkpt>
      <trkpt lat="44.02019" lon="5.16014">
        <ele>185.67</ele>
        <time>2015-12-12T09:14:25Z</time>
      </trkpt>
      <trkpt lat="44.02019" lon="5.16014">
        <ele>189.04</ele>
        <time>2015-12-12T09:14:29Z</time>
      </trkpt>
      <trkpt lat="44.02018" lon="5.16014">
        <ele>192.4</ele>
        <time>2015-12-12T09:14:34Z</time>
      </trkpt>
      <trkpt lat="44.02018" lon="5.16016">
        <ele>195.77</ele>
        <time>2015-12-12T09:14:41Z</time>
      </trkpt>
      <trkpt lat="44.02017" lon="5.16016">
        <ele>200.09</ele>
        <time>2015-12-12T09:14:50Z</time>
      </trkpt>
      <trkpt lat="44.02019" lon="5.16019">
        <ele>202.98</ele>
        <time>2015-12-12T09:15:15Z</time>
      </trkpt>
      <trkpt lat="44.02019" lon="5.16019">
        <ele>204.9</ele>
        <time>2015-12-12T09:15:50Z</time>
      </trkpt>
      <trkpt lat="44.02018" lon="5.16019">
        <ele>204.9</ele>
        <time>2015-12-12T09:16:27Z</time>
      </trkpt>
      <trkpt lat="44.02018" lon="5.16018">
        <ele>204.9</ele>
        <time>2015-12-12T09:17:03Z</time>
      </trkpt>
      <trkpt lat="44.02019" lon="5.16017">
        <ele>204.9</ele>
        <time>2015-12-12T09:17:36Z</time>
      </trkpt>
      <trkpt lat="44.02019" lon="5.16018">
        <ele>204.9</ele>
        <time>2015-12-12T09:18:15Z</time>
      </trkpt>
      <trkpt lat="44.02019" lon="5.16018">
        <ele>204.9</ele>
        <time>2015-12-12T09:18:45Z</time>
      </trkpt>
      <trkpt lat="44.02019" lon="5.16018">
        <ele>204.42</ele>
        <time>2015-12-12T09:19:13Z</time>
      </trkpt>
      <trkpt lat="44.02019" lon="5.16018">
        <ele>204.42</ele>
        <time>2015-12-12T09:19:46Z</time>
      </trkpt>
      <trkpt lat="44.02019" lon="5.16017">
        <ele>203.94</ele>
        <time>2015-12-12T09:20:20Z</time>
      </trkpt>
      <trkpt lat="44.02019" lon="5.16017">
        <ele>203.94</ele>
        <time>2015-12-12T09:20:49Z</time>
      </trkpt>
      <trkpt lat="44.02019" lon="5.16017">
        <ele>203.94</ele>
        <time>2015-12-12T09:21:19Z</time>
      </trkpt>
      <trkpt lat="44.02019" lon="5.16016">
        <ele>203.46</ele>
        <time>2015-12-12T09:21:50Z</time>
      </trkpt>
      <trkpt lat="44.02019" lon="5.16017">
        <ele>203.46</ele>
        <time>2015-12-12T09:22:26Z</time>
      </trkpt>
      <trkpt lat="44.0202" lon="5.16018">
        <ele>203.46</ele>
        <time>2015-12-12T09:22:56Z</time>
      </trkpt>
      <trkpt lat="44.0202" lon="5.16019">
        <ele>202.98</ele>
        <time>2015-12-12T09:23:31Z</time>
      </trkpt>
      <trkpt lat="44.0202" lon="5.16021">
        <ele>202.98</ele>
        <time>2015-12-12T09:24:05Z</time>
      </trkpt>
      <trkpt lat="44.0202" lon="5.16021">
        <ele>202.49</ele>
        <time>2015-12-12T09:24:40Z</time>
      </trkpt>
      <trkpt lat="44.0202" lon="5.16022">
        <ele>202.49</ele>
        <time>2015-12-12T09:25:12Z</time>
      </trkpt>
      <trkpt lat="44.02019" lon="5.16023">
        <ele>202.49</ele>
        <time>2015-12-12T09:25:44Z</time>
      </trkpt>
      <trkpt lat="44.02019" lon="5.16024">
        <ele>202.49</ele>
        <time>2015-12-12T09:26:16Z</time>
      </trkpt>
      <trkpt lat="44.02019" lon="5.16024">
        <ele>202.01</ele>
        <time>2015-12-12T09:26:46Z</time>
      </trkpt>
      <trkpt lat="44.02018" lon="5.16024">
        <ele>202.01</ele>
        <time>2015-12-12T09:27:12Z</time>
      </trkpt>
      <trkpt lat="44.02019" lon="5.16024">
        <ele>202.01</ele>
        <time>2015-12-12T09:27:39Z</time>
      </trkpt>
      <trkpt lat="44.02019" lon="5.16023">
        <ele>202.49</ele>
        <time>2015-12-12T09:28:06Z</time>
      </trkpt>
      <trkpt lat="44.0202" lon="5.16022">
        <ele>202.01</ele>
        <time>2015-12-12T09:28:36Z</time>
      </trkpt>
      <trkpt lat="44.0202" lon="5.16021">
        <ele>202.01</ele>
        <time>2015-12-12T09:29:05Z</time>
      </trkpt>
      <trkpt lat="44.0202" lon="5.16021">
        <ele>195.77</ele>
        <time>2015-12-12T09:29:15Z</time>
      </trkpt>
      <trkpt lat="44.0202" lon="5.16021">
        <ele>205.38</ele>
        <time>2015-12-12T09:29:16Z</time>
      </trkpt>
      <trkpt lat="44.0202" lon="5.16021">
        <ele>202.49</ele>
        <time>2015-12-12T09:29:17Z</time>
      </trkpt>
      <trkpt lat="44.0202" lon="5.16021">
        <ele>201.53</ele>
        <time>2015-12-12T09:29:38Z</time>
      </trkpt>
      <trkpt lat="44.0202" lon="5.16021">
        <ele>202.01</ele>
        <time>2015-12-12T09:29:55Z</time>
      </trkpt>
      <trkpt lat="44.02019" lon="5.16022">
        <ele>202.01</ele>
        <time>2015-12-12T09:30:08Z</time>
      </trkpt>
      <trkpt lat="44.02013" lon="5.16014">
        <ele>201.53</ele>
        <time>2015-12-12T09:30:22Z</time>
      </trkpt>
      <trkpt lat="44.0201" lon="5.16008">
        <ele>201.05</ele>
        <time>2015-12-12T09:30:43Z</time>
      </trkpt>
      <trkpt lat="44.02001" lon="5.15988">
        <ele>201.05</ele>
        <time>2015-12-12T09:30:54Z</time>
      </trkpt>
      <trkpt lat="44.02001" lon="5.15987">
        <ele>201.05</ele>
        <time>2015-12-12T09:30:55Z</time>
      </trkpt>
      <trkpt lat="44.01997" lon="5.15974">
        <ele>201.05</ele>
        <time>2015-12-12T09:31:04Z</time>
      </trkpt>
      <trkpt lat="44.01995" lon="5.15972">
        <ele>201.05</ele>
        <time>2015-12-12T09:31:06Z</time>
      </trkpt>
      <trkpt lat="44.01971" lon="5.15958">
        <ele>201.05</ele>
        <time>2015-12-12T09:31:16Z</time>
      </trkpt>
      <trkpt lat="44.01936" lon="5.15938">
        <ele>201.53</ele>
        <time>2015-12-12T09:31:29Z</time>
      </trkpt>
      <trkpt lat="44.0191" lon="5.15924">
        <ele>202.01</ele>
        <time>2015-12-12T09:31:38Z</time>
      </trkpt>
      <trkpt lat="44.01881" lon="5.15922">
        <ele>202.98</ele>
        <time>2015-12-12T09:31:49Z</time>
      </trkpt>
      <trkpt lat="44.01857" lon="5.15939">
        <ele>202.49</ele>
        <time>2015-12-12T09:31:58Z</time>
      </trkpt>
      <trkpt lat="44.01832" lon="5.15955">
        <ele>202.49</ele>
        <time>2015-12-12T09:32:08Z</time>
      </trkpt>
      <trkpt lat="44.01809" lon="5.15971">
        <ele>202.49</ele>
        <time>2015-12-12T09:32:17Z</time>
      </trkpt>
      <trkpt lat="44.01782" lon="5.15989">
        <ele>202.98</ele>
        <time>2015-12-12T09:32:28Z</time>
      </trkpt>
      <trkpt lat="44.01765" lon="5.16">
        <ele>203.94</ele>
        <time>2015-12-12T09:32:35Z</time>
      </trkpt>
      <trkpt lat="44.01748" lon="5.16008">
        <ele>203.94</ele>
        <time>2015-12-12T09:32:41Z</time>
      </trkpt>
      <trkpt lat="44.01722" lon="5.16023">
        <ele>203.94</ele>
        <time>2015-12-12T09:32:51Z</time>
      </trkpt>
      <trkpt lat="44.01698" lon="5.1604">
        <ele>204.9</ele>
        <time>2015-12-12T09:33:01Z</time>
      </trkpt>
      <trkpt lat="44.01673" lon="5.16058">
        <ele>205.38</ele>
        <time>2015-12-12T09:33:11Z</time>
      </trkpt>
      <trkpt lat="44.01652" lon="5.16074">
        <ele>206.34</ele>
        <time>2015-12-12T09:33:20Z</time>
      </trkpt>
      <trkpt lat="44.01628" lon="5.16094">
        <ele>206.82</ele>
        <time>2015-12-12T09:33:31Z</time>
      </trkpt>
      <trkpt lat="44.01621" lon="5.16099">
        <ele>207.3</ele>
        <time>2015-12-12T09:33:34Z</time>
      </trkpt>
      <trkpt lat="44.01604" lon="5.1611">
        <ele>207.78</ele>
        <time>2015-12-12T09:33:41Z</time>
      </trkpt>
      <trkpt lat="44.01578" lon="5.16128">
        <ele>209.22</ele>
        <time>2015-12-12T09:33:52Z</time>
      </trkpt>
      <trkpt lat="44.01553" lon="5.16147">
        <ele>210.67</ele>
        <time>2015-12-12T09:34:03Z</time>
      </trkpt>
      <trkpt lat="44.01528" lon="5.16166">
        <ele>211.63</ele>
        <time>2015-12-12T09:34:14Z</time>
      </trkpt>
      <trkpt lat="44.01506" lon="5.1618">
        <ele>213.07</ele>
        <time>2015-12-12T09:34:23Z</time>
      </trkpt>
      <trkpt lat="44.01481" lon="5.16196">
        <ele>214.99</ele>
        <time>2015-12-12T09:34:34Z</time>
      </trkpt>
      <trkpt lat="44.0146" lon="5.16208">
        <ele>216.91</ele>
        <time>2015-12-12T09:34:43Z</time>
      </trkpt>
      <trkpt lat="44.01435" lon="5.16214">
        <ele>218.84</ele>
        <time>2015-12-12T09:34:53Z</time>
      </trkpt>
      <trkpt lat="44.01412" lon="5.16222">
        <ele>220.76</ele>
        <time>2015-12-12T09:35:03Z</time>
      </trkpt>
      <trkpt lat="44.01395" lon="5.1623">
        <ele>223.16</ele>
        <time>2015-12-12T09:35:11Z</time>
      </trkpt>
      <trkpt lat="44.01378" lon="5.16235">
        <ele>224.61</ele>
        <time>2015-12-12T09:35:18Z</time>
      </trkpt>
      <trkpt lat="44.01354" lon="5.16236">
        <ele>226.53</ele>
        <time>2015-12-12T09:35:29Z</time>
      </trkpt>
      <trkpt lat="44.01332" lon="5.16232">
        <ele>227.49</ele>
        <time>2015-12-12T09:35:38Z</time>
      </trkpt>
      <trkpt lat="44.01314" lon="5.16233">
        <ele>228.45</ele>
        <time>2015-12-12T09:35:46Z</time>
      </trkpt>
      <trkpt lat="44.01289" lon="5.16231">
        <ele>228.93</ele>
        <time>2015-12-12T09:35:56Z</time>
      </trkpt>
      <trkpt lat="44.01259" lon="5.16232">
        <ele>229.41</ele>
        <time>2015-12-12T09:36:08Z</time>
      </trkpt>
      <trkpt lat="44.01234" lon="5.1623">
        <ele>229.89</ele>
        <time>2015-12-12T09:36:18Z</time>
      </trkpt>
      <trkpt lat="44.01231" lon="5.1623">
        <ele>230.37</ele>
        <time>2015-12-12T09:36:19Z</time>
      </trkpt>
      <trkpt lat="44.01217" lon="5.16229">
        <ele>230.85</ele>
        <time>2015-12-12T09:36:25Z</time>
      </trkpt>
      <trkpt lat="44.01209" lon="5.16229">
        <ele>230.85</ele>
        <time>2015-12-12T09:36:28Z</time>
      </trkpt>
      <trkpt lat="44.01194" lon="5.16226">
        <ele>231.33</ele>
        <time>2015-12-12T09:36:34Z</time>
      </trkpt>
      <trkpt lat="44.01174" lon="5.16202">
        <ele>232.3</ele>
        <time>2015-12-12T09:36:45Z</time>
      </trkpt>
      <trkpt lat="44.01162" lon="5.16181">
        <ele>233.26</ele>
        <time>2015-12-12T09:36:53Z</time>
      </trkpt>
      <trkpt lat="44.01139" lon="5.16194">
        <ele>235.66</ele>
        <time>2015-12-12T09:37:03Z</time>
      </trkpt>
      <trkpt lat="44.0113" lon="5.16199">
        <ele>236.14</ele>
        <time>2015-12-12T09:37:07Z</time>
      </trkpt>
      <trkpt lat="44.01104" lon="5.16212">
        <ele>238.54</ele>
        <time>2015-12-12T09:37:18Z</time>
      </trkpt>
      <trkpt lat="44.01102" lon="5.16213">
        <ele>238.54</ele>
        <time>2015-12-12T09:37:19Z</time>
      </trkpt>
      <trkpt lat="44.01086" lon="5.16222">
        <ele>239.51</ele>
        <time>2015-12-12T09:37:26Z</time>
      </trkpt>
      <trkpt lat="44.01071" lon="5.16227">
        <ele>240.47</ele>
        <time>2015-12-12T09:37:32Z</time>
      </trkpt>
      <trkpt lat="44.01063" lon="5.1623">
        <ele>240.95</ele>
        <time>2015-12-12T09:37:35Z</time>
      </trkpt>
      <trkpt lat="44.01046" lon="5.16236">
        <ele>241.91</ele>
        <time>2015-12-12T09:37:42Z</time>
      </trkpt>
      <trkpt lat="44.01015" lon="5.16245">
        <ele>243.35</ele>
        <time>2015-12-12T09:37:54Z</time>
      </trkpt>
      <trkpt lat="44.0099" lon="5.16254">
        <ele>244.31</ele>
        <time>2015-12-12T09:38:04Z</time>
      </trkpt>
      <trkpt lat="44.00965" lon="5.16262">
        <ele>246.72</ele>
        <time>2015-12-12T09:38:14Z</time>
      </trkpt>
      <trkpt lat="44.00956" lon="5.16267">
        <ele>247.2</ele>
        <time>2015-12-12T09:38:18Z</time>
      </trkpt>
      <trkpt lat="44.00932" lon="5.16273">
        <ele>249.12</ele>
        <time>2015-12-12T09:38:28Z</time>
      </trkpt>
      <trkpt lat="44.00917" lon="5.16282">
        <ele>251.04</ele>
        <time>2015-12-12T09:38:35Z</time>
      </trkpt>
      <trkpt lat="44.00922" lon="5.16299">
        <ele>252</ele>
        <time>2015-12-12T09:38:40Z</time>
      </trkpt>
      <trkpt lat="44.00939" lon="5.16318">
        <ele>253.44</ele>
        <time>2015-12-12T09:38:49Z</time>
      </trkpt>
      <trkpt lat="44.00941" lon="5.16355">
        <ele>256.33</ele>
        <time>2015-12-12T09:39:01Z</time>
      </trkpt>
      <trkpt lat="44.00928" lon="5.16393">
        <ele>257.77</ele>
        <time>2015-12-12T09:39:12Z</time>
      </trkpt>
      <trkpt lat="44.00903" lon="5.16413">
        <ele>258.73</ele>
        <time>2015-12-12T09:39:24Z</time>
      </trkpt>
      <trkpt lat="44.009" lon="5.16415">
        <ele>258.73</ele>
        <time>2015-12-12T09:39:25Z</time>
      </trkpt>
      <trkpt lat="44.00881" lon="5.1644">
        <ele>261.14</ele>
        <time>2015-12-12T09:39:36Z</time>
      </trkpt>
      <trkpt lat="44.00871" lon="5.16456">
        <ele>262.58</ele>
        <time>2015-12-12T09:39:43Z</time>
      </trkpt>
      <trkpt lat="44.00866" lon="5.1647">
        <ele>263.54</ele>
        <time>2015-12-12T09:39:47Z</time>
      </trkpt>
      <trkpt lat="44.00847" lon="5.16499">
        <ele>266.9</ele>
        <time>2015-12-12T09:39:59Z</time>
      </trkpt>
      <trkpt lat="44.00831" lon="5.16519">
        <ele>269.31</ele>
        <time>2015-12-12T09:40:09Z</time>
      </trkpt>
      <trkpt lat="44.00811" lon="5.16541">
        <ele>271.71</ele>
        <time>2015-12-12T09:40:20Z</time>
      </trkpt>
      <trkpt lat="44.00792" lon="5.1656">
        <ele>275.07</ele>
        <time>2015-12-12T09:40:31Z</time>
      </trkpt>
      <trkpt lat="44.00777" lon="5.16583">
        <ele>277.48</ele>
        <time>2015-12-12T09:40:42Z</time>
      </trkpt>
      <trkpt lat="44.00764" lon="5.16612">
        <ele>277.96</ele>
        <time>2015-12-12T09:40:52Z</time>
      </trkpt>
      <trkpt lat="44.00762" lon="5.16614">
        <ele>278.44</ele>
        <time>2015-12-12T09:40:53Z</time>
      </trkpt>
      <trkpt lat="44.0074" lon="5.1664">
        <ele>280.36</ele>
        <time>2015-12-12T09:41:05Z</time>
      </trkpt>
      <trkpt lat="44.00737" lon="5.16643">
        <ele>280.36</ele>
        <time>2015-12-12T09:41:07Z</time>
      </trkpt>
      <trkpt lat="44.00726" lon="5.16657">
        <ele>280.36</ele>
        <time>2015-12-12T09:41:15Z</time>
      </trkpt>
      <trkpt lat="44.00727" lon="5.16669">
        <ele>280.84</ele>
        <time>2015-12-12T09:41:20Z</time>
      </trkpt>
      <trkpt lat="44.00705" lon="5.16693">
        <ele>284.21</ele>
        <time>2015-12-12T09:41:32Z</time>
      </trkpt>
      <trkpt lat="44.00704" lon="5.16694">
        <ele>284.21</ele>
        <time>2015-12-12T09:41:33Z</time>
      </trkpt>
      <trkpt lat="44.00698" lon="5.16705">
        <ele>285.65</ele>
        <time>2015-12-12T09:41:38Z</time>
      </trkpt>
      <trkpt lat="44.00686" lon="5.1673">
        <ele>287.57</ele>
        <time>2015-12-12T09:41:49Z</time>
      </trkpt>
      <trkpt lat="44.00669" lon="5.16739">
        <ele>289.97</ele>
        <time>2015-12-12T09:41:58Z</time>
      </trkpt>
      <trkpt lat="44.00665" lon="5.1674">
        <ele>289.97</ele>
        <time>2015-12-12T09:42:00Z</time>
      </trkpt>
      <trkpt lat="44.00662" lon="5.16742">
        <ele>290.94</ele>
        <time>2015-12-12T09:42:02Z</time>
      </trkpt>
      <trkpt lat="44.00658" lon="5.16752">
        <ele>291.9</ele>
        <time>2015-12-12T09:42:06Z</time>
      </trkpt>
      <trkpt lat="44.00642" lon="5.16758">
        <ele>293.82</ele>
        <time>2015-12-12T09:42:16Z</time>
      </trkpt>
      <trkpt lat="44.00632" lon="5.16747">
        <ele>294.3</ele>
        <time>2015-12-12T09:42:22Z</time>
      </trkpt>
      <trkpt lat="44.00622" lon="5.16736">
        <ele>294.3</ele>
        <time>2015-12-12T09:42:28Z</time>
      </trkpt>
      <trkpt lat="44.00613" lon="5.16721">
        <ele>294.78</ele>
        <time>2015-12-12T09:42:34Z</time>
      </trkpt>
      <trkpt lat="44.00595" lon="5.16721">
        <ele>295.74</ele>
        <time>2015-12-12T09:42:43Z</time>
      </trkpt>
      <trkpt lat="44.00588" lon="5.16704">
        <ele>295.26</ele>
        <time>2015-12-12T09:42:48Z</time>
      </trkpt>
      <trkpt lat="44.00584" lon="5.16698">
        <ele>295.74</ele>
        <time>2015-12-12T09:42:50Z</time>
      </trkpt>
      <trkpt lat="44.00579" lon="5.16666">
        <ele>296.22</ele>
        <time>2015-12-12T09:42:59Z</time>
      </trkpt>
      <trkpt lat="44.00573" lon="5.16657">
        <ele>296.22</ele>
        <time>2015-12-12T09:43:02Z</time>
      </trkpt>
      <trkpt lat="44.00568" lon="5.16633">
        <ele>295.74</ele>
        <time>2015-12-12T09:43:09Z</time>
      </trkpt>
      <trkpt lat="44.00557" lon="5.16636">
        <ele>296.7</ele>
        <time>2015-12-12T09:43:15Z</time>
      </trkpt>
      <trkpt lat="44.00546" lon="5.16652">
        <ele>299.59</ele>
        <time>2015-12-12T09:43:24Z</time>
      </trkpt>
      <trkpt lat="44.00545" lon="5.16654">
        <ele>299.59</ele>
        <time>2015-12-12T09:43:25Z</time>
      </trkpt>
      <trkpt lat="44.00538" lon="5.16662">
        <ele>301.51</ele>
        <time>2015-12-12T09:43:30Z</time>
      </trkpt>
      <trkpt lat="44.00532" lon="5.16671">
        <ele>302.95</ele>
        <time>2015-12-12T09:43:35Z</time>
      </trkpt>
      <trkpt lat="44.00527" lon="5.16677">
        <ele>304.39</ele>
        <time>2015-12-12T09:43:39Z</time>
      </trkpt>
      <trkpt lat="44.00517" lon="5.16688">
        <ele>306.32</ele>
        <time>2015-12-12T09:43:46Z</time>
      </trkpt>
      <trkpt lat="44.00509" lon="5.16696">
        <ele>308.24</ele>
        <time>2015-12-12T09:43:51Z</time>
      </trkpt>
      <trkpt lat="44.00497" lon="5.16712">
        <ele>311.12</ele>
        <time>2015-12-12T09:44:02Z</time>
      </trkpt>
      <trkpt lat="44.00484" lon="5.16734">
        <ele>314.01</ele>
        <time>2015-12-12T09:44:13Z</time>
      </trkpt>
      <trkpt lat="44.00473" lon="5.16751">
        <ele>316.41</ele>
        <time>2015-12-12T09:44:22Z</time>
      </trkpt>
      <trkpt lat="44.0047" lon="5.16754">
        <ele>316.89</ele>
        <time>2015-12-12T09:44:24Z</time>
      </trkpt>
      <trkpt lat="44.00455" lon="5.16772">
        <ele>318.81</ele>
        <time>2015-12-12T09:44:34Z</time>
      </trkpt>
      <trkpt lat="44.00446" lon="5.16795">
        <ele>321.22</ele>
        <time>2015-12-12T09:44:44Z</time>
      </trkpt>
      <trkpt lat="44.0044" lon="5.16802">
        <ele>322.66</ele>
        <time>2015-12-12T09:44:49Z</time>
      </trkpt>
      <trkpt lat="44.00423" lon="5.16811">
        <ele>324.1</ele>
        <time>2015-12-12T09:45:00Z</time>
      </trkpt>
      <trkpt lat="44.00418" lon="5.16817">
        <ele>324.58</ele>
        <time>2015-12-12T09:45:03Z</time>
      </trkpt>
      <trkpt lat="44.00407" lon="5.16831">
        <ele>326.99</ele>
        <time>2015-12-12T09:45:12Z</time>
      </trkpt>
      <trkpt lat="44.00402" lon="5.1683">
        <ele>327.47</ele>
        <time>2015-12-12T09:45:15Z</time>
      </trkpt>
      <trkpt lat="44.00396" lon="5.1682">
        <ele>325.54</ele>
        <time>2015-12-12T09:45:19Z</time>
      </trkpt>
      <trkpt lat="44.00383" lon="5.16792">
        <ele>324.1</ele>
        <time>2015-12-12T09:45:30Z</time>
      </trkpt>
      <trkpt lat="44.00381" lon="5.1679">
        <ele>324.1</ele>
        <time>2015-12-12T09:45:31Z</time>
      </trkpt>
      <trkpt lat="44.00374" lon="5.16781">
        <ele>323.14</ele>
        <time>2015-12-12T09:45:35Z</time>
      </trkpt>
      <trkpt lat="44.00369" lon="5.16767">
        <ele>321.7</ele>
        <time>2015-12-12T09:45:39Z</time>
      </trkpt>
      <trkpt lat="44.0036" lon="5.16743">
        <ele>319.3</ele>
        <time>2015-12-12T09:45:46Z</time>
      </trkpt>
      <trkpt lat="44.00359" lon="5.16737">
        <ele>318.33</ele>
        <time>2015-12-12T09:45:48Z</time>
      </trkpt>
      <trkpt lat="44.00358" lon="5.16728">
        <ele>316.89</ele>
        <time>2015-12-12T09:45:51Z</time>
      </trkpt>
      <trkpt lat="44.00358" lon="5.16701">
        <ele>313.53</ele>
        <time>2015-12-12T09:45:58Z</time>
      </trkpt>
      <trkpt lat="44.00357" lon="5.16686">
        <ele>311.6</ele>
        <time>2015-12-12T09:46:02Z</time>
      </trkpt>
      <trkpt lat="44.00354" lon="5.16678">
        <ele>310.64</ele>
        <time>2015-12-12T09:46:11Z</time>
      </trkpt>
      <trkpt lat="44.00356" lon="5.16678">
        <ele>310.64</ele>
        <time>2015-12-12T09:46:33Z</time>
      </trkpt>
      <trkpt lat="44.00355" lon="5.16678">
        <ele>312.09</ele>
        <time>2015-12-12T09:46:57Z</time>
      </trkpt>
      <trkpt lat="44.00356" lon="5.16677">
        <ele>310.64</ele>
        <time>2015-12-12T09:47:25Z</time>
      </trkpt>
      <trkpt lat="44.00357" lon="5.16677">
        <ele>311.12</ele>
        <time>2015-12-12T09:47:41Z</time>
      </trkpt>
      <trkpt lat="44.00356" lon="5.16676">
        <ele>311.12</ele>
        <time>2015-12-12T09:48:04Z</time>
      </trkpt>
      <trkpt lat="44.00354" lon="5.16678">
        <ele>310.64</ele>
        <time>2015-12-12T09:48:14Z</time>
      </trkpt>
      <trkpt lat="44.00352" lon="5.16713">
        <ele>311.12</ele>
        <time>2015-12-12T09:48:30Z</time>
      </trkpt>
      <trkpt lat="44.00351" lon="5.16752">
        <ele>311.6</ele>
        <time>2015-12-12T09:48:39Z</time>
      </trkpt>
      <trkpt lat="44.00331" lon="5.16789">
        <ele>313.05</ele>
        <time>2015-12-12T09:48:51Z</time>
      </trkpt>
      <trkpt lat="44.0033" lon="5.16791">
        <ele>312.57</ele>
        <time>2015-12-12T09:48:52Z</time>
      </trkpt>
      <trkpt lat="44.00309" lon="5.16811">
        <ele>312.57</ele>
        <time>2015-12-12T09:49:00Z</time>
      </trkpt>
      <trkpt lat="44.0029" lon="5.16841">
        <ele>309.2</ele>
        <time>2015-12-12T09:49:09Z</time>
      </trkpt>
      <trkpt lat="44.00293" lon="5.16818">
        <ele>306.32</ele>
        <time>2015-12-12T09:49:14Z</time>
      </trkpt>
      <trkpt lat="44.00282" lon="5.16808">
        <ele>302.47</ele>
        <time>2015-12-12T09:49:20Z</time>
      </trkpt>
      <trkpt lat="44.00267" lon="5.16826">
        <ele>299.59</ele>
        <time>2015-12-12T09:49:26Z</time>
      </trkpt>
      <trkpt lat="44.0026" lon="5.1684">
        <ele>299.11</ele>
        <time>2015-12-12T09:49:30Z</time>
      </trkpt>
      <trkpt lat="44.00239" lon="5.16851">
        <ele>295.74</ele>
        <time>2015-12-12T09:49:37Z</time>
      </trkpt>
      <trkpt lat="44.00234" lon="5.16857">
        <ele>294.3</ele>
        <time>2015-12-12T09:49:39Z</time>
      </trkpt>
      <trkpt lat="44.00227" lon="5.16867">
        <ele>292.38</ele>
        <time>2015-12-12T09:49:42Z</time>
      </trkpt>
      <trkpt lat="44.00213" lon="5.16882">
        <ele>289.49</ele>
        <time>2015-12-12T09:49:47Z</time>
      </trkpt>
      <trkpt lat="44.0021" lon="5.16885">
        <ele>289.01</ele>
        <time>2015-12-12T09:49:48Z</time>
      </trkpt>
      <trkpt lat="44.00179" lon="5.16898">
        <ele>286.61</ele>
        <time>2015-12-12T09:49:57Z</time>
      </trkpt>
      <trkpt lat="44.00168" lon="5.16892">
        <ele>285.65</ele>
        <time>2015-12-12T09:50:01Z</time>
      </trkpt>
      <trkpt lat="44.00148" lon="5.16884">
        <ele>284.69</ele>
        <time>2015-12-12T09:50:10Z</time>
      </trkpt>
      <trkpt lat="44.00147" lon="5.16897">
        <ele>284.69</ele>
        <time>2015-12-12T09:50:15Z</time>
      </trkpt>
      <trkpt lat="44.00176" lon="5.1693">
        <ele>285.17</ele>
        <time>2015-12-12T09:50:29Z</time>
      </trkpt>
      <trkpt lat="44.00202" lon="5.1695">
        <ele>284.21</ele>
        <time>2015-12-12T09:50:39Z</time>
      </trkpt>
      <trkpt lat="44.00204" lon="5.16954">
        <ele>284.69</ele>
        <time>2015-12-12T09:50:41Z</time>
      </trkpt>
      <trkpt lat="44.00204" lon="5.17011">
        <ele>282.28</ele>
        <time>2015-12-12T09:50:52Z</time>
      </trkpt>
      <trkpt lat="44.00208" lon="5.17052">
        <ele>280.84</ele>
        <time>2015-12-12T09:51:00Z</time>
      </trkpt>
      <trkpt lat="44.00208" lon="5.17105">
        <ele>278.44</ele>
        <time>2015-12-12T09:51:11Z</time>
      </trkpt>
      <trkpt lat="44.00203" lon="5.17159">
        <ele>277.48</ele>
        <time>2015-12-12T09:51:23Z</time>
      </trkpt>
      <trkpt lat="44.00186" lon="5.17189">
        <ele>276.04</ele>
        <time>2015-12-12T09:51:33Z</time>
      </trkpt>
      <trkpt lat="44.00184" lon="5.17192">
        <ele>275.56</ele>
        <time>2015-12-12T09:51:34Z</time>
      </trkpt>
      <trkpt lat="44.00196" lon="5.1724">
        <ele>272.67</ele>
        <time>2015-12-12T09:51:46Z</time>
      </trkpt>
      <trkpt lat="44.00206" lon="5.17267">
        <ele>269.31</ele>
        <time>2015-12-12T09:51:53Z</time>
      </trkpt>
      <trkpt lat="44.00214" lon="5.17287">
        <ele>265.94</ele>
        <time>2015-12-12T09:52:01Z</time>
      </trkpt>
      <trkpt lat="44.00218" lon="5.17299">
        <ele>263.54</ele>
        <time>2015-12-12T09:52:05Z</time>
      </trkpt>
      <trkpt lat="44.00219" lon="5.17302">
        <ele>262.1</ele>
        <time>2015-12-12T09:52:06Z</time>
      </trkpt>
      <trkpt lat="44.00226" lon="5.17314">
        <ele>259.69</ele>
        <time>2015-12-12T09:52:11Z</time>
      </trkpt>
      <trkpt lat="44.00234" lon="5.17328">
        <ele>258.25</ele>
        <time>2015-12-12T09:52:15Z</time>
      </trkpt>
      <trkpt lat="44.00262" lon="5.17375">
        <ele>254.41</ele>
        <time>2015-12-12T09:52:27Z</time>
      </trkpt>
      <trkpt lat="44.00265" lon="5.17378">
        <ele>252.48</ele>
        <time>2015-12-12T09:52:29Z</time>
      </trkpt>
      <trkpt lat="44.00269" lon="5.17383">
        <ele>251.52</ele>
        <time>2015-12-12T09:52:31Z</time>
      </trkpt>
      <trkpt lat="44.00275" lon="5.17395">
        <ele>248.64</ele>
        <time>2015-12-12T09:52:35Z</time>
      </trkpt>
      <trkpt lat="44.00304" lon="5.1742">
        <ele>247.2</ele>
        <time>2015-12-12T09:52:47Z</time>
      </trkpt>
      <trkpt lat="44.00325" lon="5.17466">
        <ele>245.75</ele>
        <time>2015-12-12T09:53:00Z</time>
      </trkpt>
      <trkpt lat="44.00336" lon="5.17491">
        <ele>242.39</ele>
        <time>2015-12-12T09:53:06Z</time>
      </trkpt>
      <trkpt lat="44.00349" lon="5.17507">
        <ele>240.47</ele>
        <time>2015-12-12T09:53:13Z</time>
      </trkpt>
      <trkpt lat="44.00351" lon="5.17512">
        <ele>239.99</ele>
        <time>2015-12-12T09:53:15Z</time>
      </trkpt>
      <trkpt lat="44.00355" lon="5.17543">
        <ele>236.14</ele>
        <time>2015-12-12T09:53:21Z</time>
      </trkpt>
      <trkpt lat="44.00359" lon="5.17566">
        <ele>233.26</ele>
        <time>2015-12-12T09:53:26Z</time>
      </trkpt>
      <trkpt lat="44.0036" lon="5.17577">
        <ele>231.33</ele>
        <time>2015-12-12T09:53:29Z</time>
      </trkpt>
      <trkpt lat="44.00361" lon="5.17582">
        <ele>230.37</ele>
        <time>2015-12-12T09:53:30Z</time>
      </trkpt>
      <trkpt lat="44.00365" lon="5.17599">
        <ele>227.49</ele>
        <time>2015-12-12T09:53:34Z</time>
      </trkpt>
      <trkpt lat="44.00369" lon="5.17608">
        <ele>224.12</ele>
        <time>2015-12-12T09:53:38Z</time>
      </trkpt>
      <trkpt lat="44.00369" lon="5.17612">
        <ele>224.12</ele>
        <time>2015-12-12T09:53:39Z</time>
      </trkpt>
      <trkpt lat="44.00369" lon="5.17631">
        <ele>220.76</ele>
        <time>2015-12-12T09:53:43Z</time>
      </trkpt>
      <trkpt lat="44.00369" lon="5.17636">
        <ele>220.76</ele>
        <time>2015-12-12T09:53:44Z</time>
      </trkpt>
      <trkpt lat="44.00373" lon="5.17674">
        <ele>217.88</ele>
        <time>2015-12-12T09:53:54Z</time>
      </trkpt>
      <trkpt lat="44.00372" lon="5.1772">
        <ele>216.43</ele>
        <time>2015-12-12T09:54:03Z</time>
      </trkpt>
      <trkpt lat="44.00375" lon="5.1777">
        <ele>213.07</ele>
        <time>2015-12-12T09:54:13Z</time>
      </trkpt>
      <trkpt lat="44.00375" lon="5.17779">
        <ele>212.59</ele>
        <time>2015-12-12T09:54:15Z</time>
      </trkpt>
      <trkpt lat="44.00395" lon="5.17805">
        <ele>212.11</ele>
        <time>2015-12-12T09:54:27Z</time>
      </trkpt>
      <trkpt lat="44.00423" lon="5.17832">
        <ele>212.59</ele>
        <time>2015-12-12T09:54:38Z</time>
      </trkpt>
      <trkpt lat="44.00452" lon="5.17857">
        <ele>214.51</ele>
        <time>2015-12-12T09:54:51Z</time>
      </trkpt>
      <trkpt lat="44.00477" lon="5.17881">
        <ele>217.4</ele>
        <time>2015-12-12T09:55:04Z</time>
      </trkpt>
      <trkpt lat="44.00498" lon="5.17903">
        <ele>220.28</ele>
        <time>2015-12-12T09:55:16Z</time>
      </trkpt>
      <trkpt lat="44.00518" lon="5.17919">
        <ele>222.2</ele>
        <time>2015-12-12T09:55:25Z</time>
      </trkpt>
      <trkpt lat="44.0054" lon="5.1794">
        <ele>224.12</ele>
        <time>2015-12-12T09:55:37Z</time>
      </trkpt>
      <trkpt lat="44.00548" lon="5.17946">
        <ele>224.61</ele>
        <time>2015-12-12T09:55:41Z</time>
      </trkpt>
      <trkpt lat="44.00573" lon="5.17965">
        <ele>227.49</ele>
        <time>2015-12-12T09:55:55Z</time>
      </trkpt>
      <trkpt lat="44.00584" lon="5.17955">
        <ele>227.97</ele>
        <time>2015-12-12T09:56:00Z</time>
      </trkpt>
      <trkpt lat="44.00604" lon="5.17921">
        <ele>224.61</ele>
        <time>2015-12-12T09:56:10Z</time>
      </trkpt>
      <trkpt lat="44.00619" lon="5.17896">
        <ele>223.64</ele>
        <time>2015-12-12T09:56:18Z</time>
      </trkpt>
      <trkpt lat="44.00638" lon="5.17865">
        <ele>221.24</ele>
        <time>2015-12-12T09:56:28Z</time>
      </trkpt>
      <trkpt lat="44.00667" lon="5.17843">
        <ele>221.24</ele>
        <time>2015-12-12T09:56:39Z</time>
      </trkpt>
      <trkpt lat="44.00693" lon="5.1782">
        <ele>221.72</ele>
        <time>2015-12-12T09:56:52Z</time>
      </trkpt>
      <trkpt lat="44.00712" lon="5.17799">
        <ele>222.2</ele>
        <time>2015-12-12T09:57:03Z</time>
      </trkpt>
      <trkpt lat="44.00737" lon="5.17767">
        <ele>222.68</ele>
        <time>2015-12-12T09:57:17Z</time>
      </trkpt>
      <trkpt lat="44.00742" lon="5.17762">
        <ele>223.16</ele>
        <time>2015-12-12T09:57:21Z</time>
      </trkpt>
      <trkpt lat="44.00775" lon="5.17765">
        <ele>224.61</ele>
        <time>2015-12-12T09:57:37Z</time>
      </trkpt>
      <trkpt lat="44.00818" lon="5.17773">
        <ele>225.57</ele>
        <time>2015-12-12T09:57:50Z</time>
      </trkpt>
      <trkpt lat="44.00832" lon="5.17771">
        <ele>225.09</ele>
        <time>2015-12-12T09:57:55Z</time>
      </trkpt>
      <trkpt lat="44.00866" lon="5.17756">
        <ele>226.05</ele>
        <time>2015-12-12T09:58:07Z</time>
      </trkpt>
      <trkpt lat="44.00909" lon="5.17747">
        <ele>227.01</ele>
        <time>2015-12-12T09:58:20Z</time>
      </trkpt>
      <trkpt lat="44.00942" lon="5.17767">
        <ele>227.97</ele>
        <time>2015-12-12T09:58:33Z</time>
      </trkpt>
      <trkpt lat="44.0095" lon="5.17775">
        <ele>227.97</ele>
        <time>2015-12-12T09:58:37Z</time>
      </trkpt>
      <trkpt lat="44.00955" lon="5.17785">
        <ele>227.97</ele>
        <time>2015-12-12T09:58:41Z</time>
      </trkpt>
      <trkpt lat="44.00969" lon="5.17807">
        <ele>231.33</ele>
        <time>2015-12-12T09:58:53Z</time>
      </trkpt>
      <trkpt lat="44.00968" lon="5.17819">
        <ele>234.22</ele>
        <time>2015-12-12T09:58:58Z</time>
      </trkpt>
      <trkpt lat="44.00968" lon="5.17822">
        <ele>235.18</ele>
        <time>2015-12-12T09:58:59Z</time>
      </trkpt>
      <trkpt lat="44.00968" lon="5.17838">
        <ele>234.7</ele>
        <time>2015-12-12T09:59:17Z</time>
      </trkpt>
      <trkpt lat="44.00965" lon="5.1784">
        <ele>234.22</ele>
        <time>2015-12-12T09:59:31Z</time>
      </trkpt>
      <trkpt lat="44.00964" lon="5.17841">
        <ele>234.22</ele>
        <time>2015-12-12T10:00:02Z</time>
      </trkpt>
      <trkpt lat="44.00964" lon="5.17841">
        <ele>234.22</ele>
        <time>2015-12-12T10:00:38Z</time>
      </trkpt>
      <trkpt lat="44.00963" lon="5.1784">
        <ele>234.22</ele>
        <time>2015-12-12T10:00:54Z</time>
      </trkpt>
      <trkpt lat="44.00964" lon="5.17842">
        <ele>234.22</ele>
        <time>2015-12-12T10:01:13Z</time>
      </trkpt>
      <trkpt lat="44.00964" lon="5.17842">
        <ele>234.22</ele>
        <time>2015-12-12T10:01:15Z</time>
      </trkpt>
      <trkpt lat="44.00966" lon="5.17843">
        <ele>234.22</ele>
        <time>2015-12-12T10:01:17Z</time>
      </trkpt>
      <trkpt lat="44.00973" lon="5.17853">
        <ele>234.22</ele>
        <time>2015-12-12T10:01:21Z</time>
      </trkpt>
      <trkpt lat="44.00995" lon="5.17902">
        <ele>235.18</ele>
        <time>2015-12-12T10:01:34Z</time>
      </trkpt>
      <trkpt lat="44.01004" lon="5.17929">
        <ele>238.54</ele>
        <time>2015-12-12T10:01:44Z</time>
      </trkpt>
      <trkpt lat="44.01004" lon="5.17931">
        <ele>238.54</ele>
        <time>2015-12-12T10:01:45Z</time>
      </trkpt>
      <trkpt lat="44.01001" lon="5.17941">
        <ele>240.95</ele>
        <time>2015-12-12T10:01:55Z</time>
      </trkpt>
      <trkpt lat="44.01008" lon="5.17957">
        <ele>243.35</ele>
        <time>2015-12-12T10:02:04Z</time>
      </trkpt>
      <trkpt lat="44.01015" lon="5.17965">
        <ele>243.83</ele>
        <time>2015-12-12T10:02:08Z</time>
      </trkpt>
      <trkpt lat="44.01028" lon="5.17996">
        <ele>246.72</ele>
        <time>2015-12-12T10:02:20Z</time>
      </trkpt>
      <trkpt lat="44.01033" lon="5.18024">
        <ele>249.6</ele>
        <time>2015-12-12T10:02:31Z</time>
      </trkpt>
      <trkpt lat="44.01033" lon="5.18035">
        <ele>251.04</ele>
        <time>2015-12-12T10:02:36Z</time>
      </trkpt>
      <trkpt lat="44.01032" lon="5.18047">
        <ele>253.44</ele>
        <time>2015-12-12T10:02:42Z</time>
      </trkpt>
      <trkpt lat="44.01045" lon="5.18079">
        <ele>252.48</ele>
        <time>2015-12-12T10:02:54Z</time>
      </trkpt>
      <trkpt lat="44.0104" lon="5.18106">
        <ele>253.93</ele>
        <time>2015-12-12T10:03:02Z</time>
      </trkpt>
      <trkpt lat="44.01037" lon="5.18116">
        <ele>254.89</ele>
        <time>2015-12-12T10:03:06Z</time>
      </trkpt>
      <trkpt lat="44.01037" lon="5.18167">
        <ele>253.44</ele>
        <time>2015-12-12T10:03:20Z</time>
      </trkpt>
      <trkpt lat="44.01028" lon="5.18205">
        <ele>254.41</ele>
        <time>2015-12-12T10:03:32Z</time>
      </trkpt>
      <trkpt lat="44.01017" lon="5.18242">
        <ele>254.89</ele>
        <time>2015-12-12T10:03:44Z</time>
      </trkpt>
      <trkpt lat="44.01004" lon="5.18287">
        <ele>254.41</ele>
        <time>2015-12-12T10:03:56Z</time>
      </trkpt>
      <trkpt lat="44.00999" lon="5.18328">
        <ele>252.96</ele>
        <time>2015-12-12T10:04:08Z</time>
      </trkpt>
      <trkpt lat="44.00993" lon="5.18371">
        <ele>255.85</ele>
        <time>2015-12-12T10:04:21Z</time>
      </trkpt>
      <trkpt lat="44.00993" lon="5.18378">
        <ele>256.33</ele>
        <time>2015-12-12T10:04:24Z</time>
      </trkpt>
      <trkpt lat="44.01002" lon="5.18411">
        <ele>255.85</ele>
        <time>2015-12-12T10:04:38Z</time>
      </trkpt>
      <trkpt lat="44.01001" lon="5.18448">
        <ele>257.29</ele>
        <time>2015-12-12T10:04:46Z</time>
      </trkpt>
      <trkpt lat="44.01005" lon="5.18464">
        <ele>257.29</ele>
        <time>2015-12-12T10:04:51Z</time>
      </trkpt>
      <trkpt lat="44.01011" lon="5.18515">
        <ele>261.14</ele>
        <time>2015-12-12T10:05:02Z</time>
      </trkpt>
      <trkpt lat="44.01025" lon="5.18557">
        <ele>258.73</ele>
        <time>2015-12-12T10:05:14Z</time>
      </trkpt>
      <trkpt lat="44.01041" lon="5.18597">
        <ele>259.69</ele>
        <time>2015-12-12T10:05:28Z</time>
      </trkpt>
      <trkpt lat="44.01044" lon="5.18619">
        <ele>261.14</ele>
        <time>2015-12-12T10:05:34Z</time>
      </trkpt>
      <trkpt lat="44.01047" lon="5.1863">
        <ele>261.14</ele>
        <time>2015-12-12T10:05:37Z</time>
      </trkpt>
      <trkpt lat="44.01044" lon="5.18655">
        <ele>264.5</ele>
        <time>2015-12-12T10:05:46Z</time>
      </trkpt>
      <trkpt lat="44.01049" lon="5.18673">
        <ele>265.94</ele>
        <time>2015-12-12T10:05:52Z</time>
      </trkpt>
      <trkpt lat="44.01056" lon="5.18684">
        <ele>266.42</ele>
        <time>2015-12-12T10:05:56Z</time>
      </trkpt>
      <trkpt lat="44.01069" lon="5.18717">
        <ele>269.79</ele>
        <time>2015-12-12T10:06:08Z</time>
      </trkpt>
      <trkpt lat="44.01083" lon="5.18755">
        <ele>270.75</ele>
        <time>2015-12-12T10:06:21Z</time>
      </trkpt>
      <trkpt lat="44.01091" lon="5.18777">
        <ele>267.38</ele>
        <time>2015-12-12T10:06:27Z</time>
      </trkpt>
      <trkpt lat="44.01093" lon="5.18814">
        <ele>267.38</ele>
        <time>2015-12-12T10:06:35Z</time>
      </trkpt>
      <trkpt lat="44.01106" lon="5.18853">
        <ele>267.38</ele>
        <time>2015-12-12T10:06:47Z</time>
      </trkpt>
      <trkpt lat="44.0112" lon="5.18896">
        <ele>271.71</ele>
        <time>2015-12-12T10:07:03Z</time>
      </trkpt>
      <trkpt lat="44.01131" lon="5.18937">
        <ele>272.67</ele>
        <time>2015-12-12T10:07:17Z</time>
      </trkpt>
      <trkpt lat="44.0114" lon="5.18964">
        <ele>274.11</ele>
        <time>2015-12-12T10:07:25Z</time>
      </trkpt>
      <trkpt lat="44.01156" lon="5.19">
        <ele>277</ele>
        <time>2015-12-12T10:07:39Z</time>
      </trkpt>
      <trkpt lat="44.01161" lon="5.19017">
        <ele>277</ele>
        <time>2015-12-12T10:07:45Z</time>
      </trkpt>
      <trkpt lat="44.01169" lon="5.19025">
        <ele>273.63</ele>
        <time>2015-12-12T10:07:51Z</time>
      </trkpt>
      <trkpt lat="44.01173" lon="5.1903">
        <ele>273.63</ele>
        <time>2015-12-12T10:07:53Z</time>
      </trkpt>
      <trkpt lat="44.01185" lon="5.19047">
        <ele>270.75</ele>
        <time>2015-12-12T10:07:59Z</time>
      </trkpt>
      <trkpt lat="44.01195" lon="5.19091">
        <ele>267.86</ele>
        <time>2015-12-12T10:08:10Z</time>
      </trkpt>
      <trkpt lat="44.01195" lon="5.19097">
        <ele>267.38</ele>
        <time>2015-12-12T10:08:11Z</time>
      </trkpt>
      <trkpt lat="44.01206" lon="5.1912">
        <ele>264.02</ele>
        <time>2015-12-12T10:08:18Z</time>
      </trkpt>
      <trkpt lat="44.01205" lon="5.19138">
        <ele>261.62</ele>
        <time>2015-12-12T10:08:22Z</time>
      </trkpt>
      <trkpt lat="44.01203" lon="5.19194">
        <ele>259.69</ele>
        <time>2015-12-12T10:08:34Z</time>
      </trkpt>
      <trkpt lat="44.01205" lon="5.19248">
        <ele>261.62</ele>
        <time>2015-12-12T10:08:49Z</time>
      </trkpt>
      <trkpt lat="44.01208" lon="5.19299">
        <ele>264.5</ele>
        <time>2015-12-12T10:09:02Z</time>
      </trkpt>
      <trkpt lat="44.0121" lon="5.19323">
        <ele>265.46</ele>
        <time>2015-12-12T10:09:09Z</time>
      </trkpt>
      <trkpt lat="44.01205" lon="5.19365">
        <ele>266.9</ele>
        <time>2015-12-12T10:09:24Z</time>
      </trkpt>
      <trkpt lat="44.01206" lon="5.19386">
        <ele>269.79</ele>
        <time>2015-12-12T10:09:39Z</time>
      </trkpt>
      <trkpt lat="44.01208" lon="5.19404">
        <ele>272.19</ele>
        <time>2015-12-12T10:09:52Z</time>
      </trkpt>
      <trkpt lat="44.0121" lon="5.19406">
        <ele>271.71</ele>
        <time>2015-12-12T10:09:54Z</time>
      </trkpt>
      <trkpt lat="44.01213" lon="5.1941">
        <ele>272.67</ele>
        <time>2015-12-12T10:09:58Z</time>
      </trkpt>
      <trkpt lat="44.01217" lon="5.19418">
        <ele>272.19</ele>
        <time>2015-12-12T10:10:03Z</time>
      </trkpt>
      <trkpt lat="44.01219" lon="5.19422">
        <ele>272.19</ele>
        <time>2015-12-12T10:10:05Z</time>
      </trkpt>
      <trkpt lat="44.01222" lon="5.19424">
        <ele>271.71</ele>
        <time>2015-12-12T10:10:08Z</time>
      </trkpt>
      <trkpt lat="44.01224" lon="5.19427">
        <ele>272.19</ele>
        <time>2015-12-12T10:10:11Z</time>
      </trkpt>
      <trkpt lat="44.01232" lon="5.19439">
        <ele>272.19</ele>
        <time>2015-12-12T10:10:19Z</time>
      </trkpt>
      <trkpt lat="44.01235" lon="5.19445">
        <ele>272.19</ele>
        <time>2015-12-12T10:10:23Z</time>
      </trkpt>
      <trkpt lat="44.01244" lon="5.19468">
        <ele>272.19</ele>
        <time>2015-12-12T10:10:35Z</time>
      </trkpt>
      <trkpt lat="44.01265" lon="5.19491">
        <ele>273.15</ele>
        <time>2015-12-12T10:10:55Z</time>
      </trkpt>
      <trkpt lat="44.01274" lon="5.19501">
        <ele>276.52</ele>
        <time>2015-12-12T10:11:05Z</time>
      </trkpt>
      <trkpt lat="44.01279" lon="5.1952">
        <ele>277.48</ele>
        <time>2015-12-12T10:11:19Z</time>
      </trkpt>
      <trkpt lat="44.01284" lon="5.19537">
        <ele>278.44</ele>
        <time>2015-12-12T10:11:27Z</time>
      </trkpt>
      <trkpt lat="44.01289" lon="5.19564">
        <ele>281.32</ele>
        <time>2015-12-12T10:11:41Z</time>
      </trkpt>
      <trkpt lat="44.01298" lon="5.19585">
        <ele>283.73</ele>
        <time>2015-12-12T10:11:52Z</time>
      </trkpt>
      <trkpt lat="44.01304" lon="5.19593">
        <ele>284.21</ele>
        <time>2015-12-12T10:11:56Z</time>
      </trkpt>
      <trkpt lat="44.01329" lon="5.19622">
        <ele>285.17</ele>
        <time>2015-12-12T10:12:10Z</time>
      </trkpt>
      <trkpt lat="44.01352" lon="5.19643">
        <ele>284.69</ele>
        <time>2015-12-12T10:12:21Z</time>
      </trkpt>
      <trkpt lat="44.0136" lon="5.19679">
        <ele>286.61</ele>
        <time>2015-12-12T10:12:33Z</time>
      </trkpt>
      <trkpt lat="44.01369" lon="5.19721">
        <ele>289.97</ele>
        <time>2015-12-12T10:12:46Z</time>
      </trkpt>
      <trkpt lat="44.01369" lon="5.19741">
        <ele>291.42</ele>
        <time>2015-12-12T10:12:52Z</time>
      </trkpt>
      <trkpt lat="44.01387" lon="5.19777">
        <ele>293.34</ele>
        <time>2015-12-12T10:13:07Z</time>
      </trkpt>
      <trkpt lat="44.01395" lon="5.19785">
        <ele>292.86</ele>
        <time>2015-12-12T10:13:11Z</time>
      </trkpt>
      <trkpt lat="44.01401" lon="5.19828">
        <ele>294.78</ele>
        <time>2015-12-12T10:13:26Z</time>
      </trkpt>
      <trkpt lat="44.0141" lon="5.19869">
        <ele>297.18</ele>
        <time>2015-12-12T10:13:39Z</time>
      </trkpt>
      <trkpt lat="44.01416" lon="5.199">
        <ele>300.55</ele>
        <time>2015-12-12T10:13:49Z</time>
      </trkpt>
      <trkpt lat="44.01416" lon="5.19906">
        <ele>301.51</ele>
        <time>2015-12-12T10:13:51Z</time>
      </trkpt>
      <trkpt lat="44.01418" lon="5.19916">
        <ele>302.47</ele>
        <time>2015-12-12T10:13:56Z</time>
      </trkpt>
      <trkpt lat="44.01419" lon="5.1992">
        <ele>302.47</ele>
        <time>2015-12-12T10:13:58Z</time>
      </trkpt>
      <trkpt lat="44.0142" lon="5.19929">
        <ele>302.95</ele>
        <time>2015-12-12T10:14:03Z</time>
      </trkpt>
      <trkpt lat="44.01422" lon="5.19934">
        <ele>302.95</ele>
        <time>2015-12-12T10:14:06Z</time>
      </trkpt>
      <trkpt lat="44.01433" lon="5.19941">
        <ele>302.47</ele>
        <time>2015-12-12T10:14:19Z</time>
      </trkpt>
      <trkpt lat="44.01449" lon="5.19942">
        <ele>301.51</ele>
        <time>2015-12-12T10:14:26Z</time>
      </trkpt>
      <trkpt lat="44.01484" lon="5.19952">
        <ele>300.07</ele>
        <time>2015-12-12T10:14:38Z</time>
      </trkpt>
      <trkpt lat="44.01527" lon="5.19951">
        <ele>299.59</ele>
        <time>2015-12-12T10:14:51Z</time>
      </trkpt>
      <trkpt lat="44.01541" lon="5.19944">
        <ele>299.11</ele>
        <time>2015-12-12T10:14:56Z</time>
      </trkpt>
      <trkpt lat="44.01554" lon="5.19935">
        <ele>299.11</ele>
        <time>2015-12-12T10:15:01Z</time>
      </trkpt>
      <trkpt lat="44.01567" lon="5.19931">
        <ele>299.59</ele>
        <time>2015-12-12T10:15:05Z</time>
      </trkpt>
      <trkpt lat="44.01575" lon="5.19921">
        <ele>300.55</ele>
        <time>2015-12-12T10:15:09Z</time>
      </trkpt>
      <trkpt lat="44.01579" lon="5.19917">
        <ele>301.51</ele>
        <time>2015-12-12T10:15:12Z</time>
      </trkpt>
      <trkpt lat="44.01617" lon="5.19902">
        <ele>302.47</ele>
        <time>2015-12-12T10:15:25Z</time>
      </trkpt>
      <trkpt lat="44.01631" lon="5.19897">
        <ele>301.99</ele>
        <time>2015-12-12T10:15:29Z</time>
      </trkpt>
      <trkpt lat="44.01644" lon="5.19874">
        <ele>298.15</ele>
        <time>2015-12-12T10:15:35Z</time>
      </trkpt>
      <trkpt lat="44.01646" lon="5.1987">
        <ele>298.15</ele>
        <time>2015-12-12T10:15:36Z</time>
      </trkpt>
      <trkpt lat="44.01653" lon="5.19858">
        <ele>296.7</ele>
        <time>2015-12-12T10:15:39Z</time>
      </trkpt>
      <trkpt lat="44.01671" lon="5.1984">
        <ele>294.3</ele>
        <time>2015-12-12T10:15:47Z</time>
      </trkpt>
      <trkpt lat="44.01675" lon="5.19821">
        <ele>292.38</ele>
        <time>2015-12-12T10:15:52Z</time>
      </trkpt>
      <trkpt lat="44.01682" lon="5.19812">
        <ele>291.42</ele>
        <time>2015-12-12T10:15:55Z</time>
      </trkpt>
      <trkpt lat="44.01687" lon="5.19805">
        <ele>291.42</ele>
        <time>2015-12-12T10:15:58Z</time>
      </trkpt>
      <trkpt lat="44.01704" lon="5.19804">
        <ele>293.34</ele>
        <time>2015-12-12T10:16:06Z</time>
      </trkpt>
      <trkpt lat="44.01712" lon="5.19806">
        <ele>293.82</ele>
        <time>2015-12-12T10:16:10Z</time>
      </trkpt>
      <trkpt lat="44.01748" lon="5.1981">
        <ele>296.22</ele>
        <time>2015-12-12T10:16:25Z</time>
      </trkpt>
      <trkpt lat="44.01782" lon="5.19831">
        <ele>297.67</ele>
        <time>2015-12-12T10:16:43Z</time>
      </trkpt>
      <trkpt lat="44.01808" lon="5.19847">
        <ele>300.07</ele>
        <time>2015-12-12T10:16:57Z</time>
      </trkpt>
      <trkpt lat="44.01826" lon="5.19865">
        <ele>304.39</ele>
        <time>2015-12-12T10:17:08Z</time>
      </trkpt>
      <trkpt lat="44.01828" lon="5.19868">
        <ele>303.43</ele>
        <time>2015-12-12T10:17:09Z</time>
      </trkpt>
      <trkpt lat="44.01834" lon="5.19875">
        <ele>304.39</ele>
        <time>2015-12-12T10:17:13Z</time>
      </trkpt>
      <trkpt lat="44.01848" lon="5.19904">
        <ele>307.28</ele>
        <time>2015-12-12T10:17:25Z</time>
      </trkpt>
      <trkpt lat="44.01868" lon="5.19923">
        <ele>309.2</ele>
        <time>2015-12-12T10:17:38Z</time>
      </trkpt>
      <trkpt lat="44.01889" lon="5.19942">
        <ele>312.09</ele>
        <time>2015-12-12T10:17:51Z</time>
      </trkpt>
      <trkpt lat="44.0189" lon="5.19944">
        <ele>312.09</ele>
        <time>2015-12-12T10:17:52Z</time>
      </trkpt>
      <trkpt lat="44.01906" lon="5.19975">
        <ele>315.45</ele>
        <time>2015-12-12T10:18:06Z</time>
      </trkpt>
      <trkpt lat="44.01906" lon="5.19983">
        <ele>315.45</ele>
        <time>2015-12-12T10:18:09Z</time>
      </trkpt>
      <trkpt lat="44.01915" lon="5.19991">
        <ele>315.93</ele>
        <time>2015-12-12T10:18:13Z</time>
      </trkpt>
      <trkpt lat="44.01953" lon="5.20021">
        <ele>317.37</ele>
        <time>2015-12-12T10:18:29Z</time>
      </trkpt>
      <trkpt lat="44.01967" lon="5.20029">
        <ele>318.33</ele>
        <time>2015-12-12T10:18:35Z</time>
      </trkpt>
      <trkpt lat="44.0197" lon="5.20023">
        <ele>318.33</ele>
        <time>2015-12-12T10:18:39Z</time>
      </trkpt>
      <trkpt lat="44.01997" lon="5.19995">
        <ele>314.97</ele>
        <time>2015-12-12T10:18:49Z</time>
      </trkpt>
      <trkpt lat="44.02" lon="5.19989">
        <ele>314.49</ele>
        <time>2015-12-12T10:18:51Z</time>
      </trkpt>
      <trkpt lat="44.02024" lon="5.1995">
        <ele>312.57</ele>
        <time>2015-12-12T10:19:04Z</time>
      </trkpt>
      <trkpt lat="44.02029" lon="5.19936">
        <ele>312.09</ele>
        <time>2015-12-12T10:19:08Z</time>
      </trkpt>
      <trkpt lat="44.02038" lon="5.1992">
        <ele>311.12</ele>
        <time>2015-12-12T10:19:12Z</time>
      </trkpt>
      <trkpt lat="44.02044" lon="5.1991">
        <ele>309.68</ele>
        <time>2015-12-12T10:19:15Z</time>
      </trkpt>
      <trkpt lat="44.02066" lon="5.19878">
        <ele>307.76</ele>
        <time>2015-12-12T10:19:24Z</time>
      </trkpt>
      <trkpt lat="44.02081" lon="5.19833">
        <ele>305.36</ele>
        <time>2015-12-12T10:19:35Z</time>
      </trkpt>
      <trkpt lat="44.02092" lon="5.19793">
        <ele>303.91</ele>
        <time>2015-12-12T10:19:45Z</time>
      </trkpt>
      <trkpt lat="44.02101" lon="5.19742">
        <ele>303.43</ele>
        <time>2015-12-12T10:19:58Z</time>
      </trkpt>
      <trkpt lat="44.02105" lon="5.19697">
        <ele>302.95</ele>
        <time>2015-12-12T10:20:09Z</time>
      </trkpt>
      <trkpt lat="44.02108" lon="5.19689">
        <ele>302.47</ele>
        <time>2015-12-12T10:20:11Z</time>
      </trkpt>
      <trkpt lat="44.0212" lon="5.19663">
        <ele>302.47</ele>
        <time>2015-12-12T10:20:19Z</time>
      </trkpt>
      <trkpt lat="44.02141" lon="5.19627">
        <ele>302.47</ele>
        <time>2015-12-12T10:20:32Z</time>
      </trkpt>
      <trkpt lat="44.02158" lon="5.19593">
        <ele>302.95</ele>
        <time>2015-12-12T10:20:44Z</time>
      </trkpt>
      <trkpt lat="44.02165" lon="5.1958">
        <ele>303.91</ele>
        <time>2015-12-12T10:20:50Z</time>
      </trkpt>
      <trkpt lat="44.0217" lon="5.1957">
        <ele>303.91</ele>
        <time>2015-12-12T10:20:54Z</time>
      </trkpt>
      <trkpt lat="44.02183" lon="5.19552">
        <ele>304.39</ele>
        <time>2015-12-12T10:21:02Z</time>
      </trkpt>
      <trkpt lat="44.02189" lon="5.19545">
        <ele>304.88</ele>
        <time>2015-12-12T10:21:05Z</time>
      </trkpt>
      <trkpt lat="44.02213" lon="5.19545">
        <ele>306.8</ele>
        <time>2015-12-12T10:21:22Z</time>
      </trkpt>
      <trkpt lat="44.02214" lon="5.19543">
        <ele>306.8</ele>
        <time>2015-12-12T10:21:38Z</time>
      </trkpt>
      <trkpt lat="44.02214" lon="5.19541">
        <ele>306.8</ele>
        <time>2015-12-12T10:21:53Z</time>
      </trkpt>
      <trkpt lat="44.02214" lon="5.19547">
        <ele>306.8</ele>
        <time>2015-12-12T10:22:09Z</time>
      </trkpt>
      <trkpt lat="44.02214" lon="5.19548">
        <ele>306.32</ele>
        <time>2015-12-12T10:22:36Z</time>
      </trkpt>
      <trkpt lat="44.02214" lon="5.19543">
        <ele>306.32</ele>
        <time>2015-12-12T10:22:52Z</time>
      </trkpt>
      <trkpt lat="44.02216" lon="5.19538">
        <ele>306.32</ele>
        <time>2015-12-12T10:23:06Z</time>
      </trkpt>
      <trkpt lat="44.02214" lon="5.19541">
        <ele>306.32</ele>
        <time>2015-12-12T10:23:24Z</time>
      </trkpt>
      <trkpt lat="44.02214" lon="5.19539">
        <ele>305.84</ele>
        <time>2015-12-12T10:23:37Z</time>
      </trkpt>
      <trkpt lat="44.02216" lon="5.19523">
        <ele>306.32</ele>
        <time>2015-12-12T10:23:52Z</time>
      </trkpt>
      <trkpt lat="44.02217" lon="5.19516">
        <ele>306.8</ele>
        <time>2015-12-12T10:23:55Z</time>
      </trkpt>
      <trkpt lat="44.02224" lon="5.19497">
        <ele>308.24</ele>
        <time>2015-12-12T10:24:02Z</time>
      </trkpt>
      <trkpt lat="44.02234" lon="5.19491">
        <ele>309.2</ele>
        <time>2015-12-12T10:24:07Z</time>
      </trkpt>
      <trkpt lat="44.02261" lon="5.19488">
        <ele>311.6</ele>
        <time>2015-12-12T10:24:19Z</time>
      </trkpt>
      <trkpt lat="44.02277" lon="5.19482">
        <ele>314.97</ele>
        <time>2015-12-12T10:24:30Z</time>
      </trkpt>
      <trkpt lat="44.02297" lon="5.19467">
        <ele>314.01</ele>
        <time>2015-12-12T10:24:37Z</time>
      </trkpt>
      <trkpt lat="44.023" lon="5.19455">
        <ele>314.01</ele>
        <time>2015-12-12T10:24:41Z</time>
      </trkpt>
      <trkpt lat="44.02306" lon="5.19444">
        <ele>314.97</ele>
        <time>2015-12-12T10:24:46Z</time>
      </trkpt>
      <trkpt lat="44.02317" lon="5.19422">
        <ele>315.93</ele>
        <time>2015-12-12T10:24:59Z</time>
      </trkpt>
      <trkpt lat="44.02322" lon="5.19413">
        <ele>315.45</ele>
        <time>2015-12-12T10:25:05Z</time>
      </trkpt>
      <trkpt lat="44.02338" lon="5.194">
        <ele>315.45</ele>
        <time>2015-12-12T10:25:12Z</time>
      </trkpt>
      <trkpt lat="44.02372" lon="5.19386">
        <ele>312.57</ele>
        <time>2015-12-12T10:25:23Z</time>
      </trkpt>
      <trkpt lat="44.02401" lon="5.19387">
        <ele>312.57</ele>
        <time>2015-12-12T10:25:33Z</time>
      </trkpt>
      <trkpt lat="44.0242" lon="5.19392">
        <ele>313.53</ele>
        <time>2015-12-12T10:25:41Z</time>
      </trkpt>
      <trkpt lat="44.02448" lon="5.19383">
        <ele>315.45</ele>
        <time>2015-12-12T10:25:53Z</time>
      </trkpt>
      <trkpt lat="44.0247" lon="5.19368">
        <ele>316.41</ele>
        <time>2015-12-12T10:26:04Z</time>
      </trkpt>
      <trkpt lat="44.02497" lon="5.19361">
        <ele>316.41</ele>
        <time>2015-12-12T10:26:14Z</time>
      </trkpt>
      <trkpt lat="44.02507" lon="5.19362">
        <ele>316.89</ele>
        <time>2015-12-12T10:26:19Z</time>
      </trkpt>
      <trkpt lat="44.02512" lon="5.19361">
        <ele>316.89</ele>
        <time>2015-12-12T10:26:21Z</time>
      </trkpt>
      <trkpt lat="44.02516" lon="5.1936">
        <ele>316.89</ele>
        <time>2015-12-12T10:26:23Z</time>
      </trkpt>
      <trkpt lat="44.02526" lon="5.19358">
        <ele>317.37</ele>
        <time>2015-12-12T10:26:27Z</time>
      </trkpt>
      <trkpt lat="44.02554" lon="5.19351">
        <ele>319.3</ele>
        <time>2015-12-12T10:26:37Z</time>
      </trkpt>
      <trkpt lat="44.02566" lon="5.19345">
        <ele>319.78</ele>
        <time>2015-12-12T10:26:41Z</time>
      </trkpt>
      <trkpt lat="44.02575" lon="5.193">
        <ele>320.74</ele>
        <time>2015-12-12T10:26:54Z</time>
      </trkpt>
      <trkpt lat="44.02576" lon="5.19288">
        <ele>321.7</ele>
        <time>2015-12-12T10:26:59Z</time>
      </trkpt>
      <trkpt lat="44.02579" lon="5.1928">
        <ele>323.14</ele>
        <time>2015-12-12T10:27:04Z</time>
      </trkpt>
      <trkpt lat="44.02591" lon="5.19275">
        <ele>323.62</ele>
        <time>2015-12-12T10:27:11Z</time>
      </trkpt>
      <trkpt lat="44.02602" lon="5.19253">
        <ele>326.5</ele>
        <time>2015-12-12T10:27:21Z</time>
      </trkpt>
      <trkpt lat="44.02634" lon="5.19258">
        <ele>329.87</ele>
        <time>2015-12-12T10:27:36Z</time>
      </trkpt>
      <trkpt lat="44.0266" lon="5.19247">
        <ele>332.75</ele>
        <time>2015-12-12T10:27:48Z</time>
      </trkpt>
      <trkpt lat="44.02665" lon="5.19243">
        <ele>333.23</ele>
        <time>2015-12-12T10:27:51Z</time>
      </trkpt>
      <trkpt lat="44.02701" lon="5.19247">
        <ele>334.68</ele>
        <time>2015-12-12T10:28:06Z</time>
      </trkpt>
      <trkpt lat="44.02743" lon="5.19244">
        <ele>334.2</ele>
        <time>2015-12-12T10:28:17Z</time>
      </trkpt>
      <trkpt lat="44.02775" lon="5.19259">
        <ele>335.64</ele>
        <time>2015-12-12T10:28:30Z</time>
      </trkpt>
      <trkpt lat="44.02801" lon="5.19255">
        <ele>338.04</ele>
        <time>2015-12-12T10:28:41Z</time>
      </trkpt>
      <trkpt lat="44.02827" lon="5.19257">
        <ele>339.96</ele>
        <time>2015-12-12T10:28:51Z</time>
      </trkpt>
      <trkpt lat="44.02852" lon="5.1927">
        <ele>341.41</ele>
        <time>2015-12-12T10:29:02Z</time>
      </trkpt>
      <trkpt lat="44.0288" lon="5.1928">
        <ele>344.29</ele>
        <time>2015-12-12T10:29:13Z</time>
      </trkpt>
      <trkpt lat="44.02903" lon="5.193">
        <ele>345.73</ele>
        <time>2015-12-12T10:29:25Z</time>
      </trkpt>
      <trkpt lat="44.02927" lon="5.19316">
        <ele>349.1</ele>
        <time>2015-12-12T10:29:37Z</time>
      </trkpt>
      <trkpt lat="44.02947" lon="5.1933">
        <ele>351.5</ele>
        <time>2015-12-12T10:29:50Z</time>
      </trkpt>
      <trkpt lat="44.02961" lon="5.19339">
        <ele>352.94</ele>
        <time>2015-12-12T10:30:04Z</time>
      </trkpt>
      <trkpt lat="44.02972" lon="5.19349">
        <ele>353.9</ele>
        <time>2015-12-12T10:30:14Z</time>
      </trkpt>
      <trkpt lat="44.02972" lon="5.1932">
        <ele>350.54</ele>
        <time>2015-12-12T10:30:22Z</time>
      </trkpt>
      <trkpt lat="44.02972" lon="5.19315">
        <ele>349.58</ele>
        <time>2015-12-12T10:30:23Z</time>
      </trkpt>
      <trkpt lat="44.02974" lon="5.19288">
        <ele>348.13</ele>
        <time>2015-12-12T10:30:30Z</time>
      </trkpt>
      <trkpt lat="44.02977" lon="5.19248">
        <ele>347.65</ele>
        <time>2015-12-12T10:30:40Z</time>
      </trkpt>
      <trkpt lat="44.02977" lon="5.1922">
        <ele>348.13</ele>
        <time>2015-12-12T10:30:48Z</time>
      </trkpt>
      <trkpt lat="44.02977" lon="5.19216">
        <ele>348.62</ele>
        <time>2015-12-12T10:30:49Z</time>
      </trkpt>
      <trkpt lat="44.02974" lon="5.1919">
        <ele>351.5</ele>
        <time>2015-12-12T10:30:58Z</time>
      </trkpt>
      <trkpt lat="44.02974" lon="5.19171">
        <ele>354.38</ele>
        <time>2015-12-12T10:31:06Z</time>
      </trkpt>
      <trkpt lat="44.02974" lon="5.19145">
        <ele>358.71</ele>
        <time>2015-12-12T10:31:14Z</time>
      </trkpt>
      <trkpt lat="44.02975" lon="5.19142">
        <ele>357.75</ele>
        <time>2015-12-12T10:31:15Z</time>
      </trkpt>
      <trkpt lat="44.02979" lon="5.19119">
        <ele>361.11</ele>
        <time>2015-12-12T10:31:24Z</time>
      </trkpt>
      <trkpt lat="44.02984" lon="5.19088">
        <ele>362.55</ele>
        <time>2015-12-12T10:31:37Z</time>
      </trkpt>
      <trkpt lat="44.02982" lon="5.19083">
        <ele>362.55</ele>
        <time>2015-12-12T10:31:39Z</time>
      </trkpt>
      <trkpt lat="44.02963" lon="5.19049">
        <ele>364</ele>
        <time>2015-12-12T10:31:51Z</time>
      </trkpt>
      <trkpt lat="44.02952" lon="5.19013">
        <ele>367.36</ele>
        <time>2015-12-12T10:32:03Z</time>
      </trkpt>
      <trkpt lat="44.02941" lon="5.18983">
        <ele>370.24</ele>
        <time>2015-12-12T10:32:16Z</time>
      </trkpt>
      <trkpt lat="44.0293" lon="5.18959">
        <ele>373.13</ele>
        <time>2015-12-12T10:32:30Z</time>
      </trkpt>
      <trkpt lat="44.02924" lon="5.18939">
        <ele>375.05</ele>
        <time>2015-12-12T10:32:44Z</time>
      </trkpt>
      <trkpt lat="44.02915" lon="5.18927">
        <ele>376.49</ele>
        <time>2015-12-12T10:32:59Z</time>
      </trkpt>
      <trkpt lat="44.02914" lon="5.18926">
        <ele>376.01</ele>
        <time>2015-12-12T10:33:06Z</time>
      </trkpt>
      <trkpt lat="44.02912" lon="5.18922">
        <ele>376.01</ele>
        <time>2015-12-12T10:33:09Z</time>
      </trkpt>
      <trkpt lat="44.02911" lon="5.18915">
        <ele>376.01</ele>
        <time>2015-12-12T10:33:14Z</time>
      </trkpt>
      <trkpt lat="44.02911" lon="5.18908">
        <ele>376.49</ele>
        <time>2015-12-12T10:33:18Z</time>
      </trkpt>
      <trkpt lat="44.02909" lon="5.18882">
        <ele>375.53</ele>
        <time>2015-12-12T10:33:26Z</time>
      </trkpt>
      <trkpt lat="44.02897" lon="5.18838">
        <ele>372.65</ele>
        <time>2015-12-12T10:33:37Z</time>
      </trkpt>
      <trkpt lat="44.02881" lon="5.18802">
        <ele>369.28</ele>
        <time>2015-12-12T10:33:46Z</time>
      </trkpt>
      <trkpt lat="44.02874" lon="5.18785">
        <ele>367.84</ele>
        <time>2015-12-12T10:33:50Z</time>
      </trkpt>
      <trkpt lat="44.02857" lon="5.18754">
        <ele>365.44</ele>
        <time>2015-12-12T10:33:59Z</time>
      </trkpt>
      <trkpt lat="44.02836" lon="5.18715">
        <ele>363.04</ele>
        <time>2015-12-12T10:34:10Z</time>
      </trkpt>
      <trkpt lat="44.02832" lon="5.18694">
        <ele>360.63</ele>
        <time>2015-12-12T10:34:15Z</time>
      </trkpt>
      <trkpt lat="44.02825" lon="5.18648">
        <ele>359.67</ele>
        <time>2015-12-12T10:34:26Z</time>
      </trkpt>
      <trkpt lat="44.02818" lon="5.18609">
        <ele>359.19</ele>
        <time>2015-12-12T10:34:36Z</time>
      </trkpt>
      <trkpt lat="44.02816" lon="5.18591">
        <ele>359.67</ele>
        <time>2015-12-12T10:34:41Z</time>
      </trkpt>
      <trkpt lat="44.02819" lon="5.18562">
        <ele>358.71</ele>
        <time>2015-12-12T10:34:49Z</time>
      </trkpt>
      <trkpt lat="44.02827" lon="5.1854">
        <ele>357.75</ele>
        <time>2015-12-12T10:34:56Z</time>
      </trkpt>
      <trkpt lat="44.02847" lon="5.18518">
        <ele>355.83</ele>
        <time>2015-12-12T10:35:05Z</time>
      </trkpt>
      <trkpt lat="44.02849" lon="5.1851">
        <ele>354.38</ele>
        <time>2015-12-12T10:35:10Z</time>
      </trkpt>
      <trkpt lat="44.02858" lon="5.18503">
        <ele>352.94</ele>
        <time>2015-12-12T10:35:14Z</time>
      </trkpt>
      <trkpt lat="44.02874" lon="5.18483">
        <ele>351.02</ele>
        <time>2015-12-12T10:35:19Z</time>
      </trkpt>
      <trkpt lat="44.02881" lon="5.18473">
        <ele>349.58</ele>
        <time>2015-12-12T10:35:22Z</time>
      </trkpt>
      <trkpt lat="44.02891" lon="5.18459">
        <ele>347.65</ele>
        <time>2015-12-12T10:35:26Z</time>
      </trkpt>
      <trkpt lat="44.02899" lon="5.18448">
        <ele>346.21</ele>
        <time>2015-12-12T10:35:29Z</time>
      </trkpt>
      <trkpt lat="44.02902" lon="5.18434">
        <ele>344.77</ele>
        <time>2015-12-12T10:35:33Z</time>
      </trkpt>
      <trkpt lat="44.02918" lon="5.18405">
        <ele>341.89</ele>
        <time>2015-12-12T10:35:41Z</time>
      </trkpt>
      <trkpt lat="44.0294" lon="5.18388">
        <ele>338.04</ele>
        <time>2015-12-12T10:35:49Z</time>
      </trkpt>
      <trkpt lat="44.02943" lon="5.18387">
        <ele>338.04</ele>
        <time>2015-12-12T10:35:50Z</time>
      </trkpt>
      <trkpt lat="44.02945" lon="5.18386">
        <ele>337.56</ele>
        <time>2015-12-12T10:35:51Z</time>
      </trkpt>
      <trkpt lat="44.02968" lon="5.18374">
        <ele>334.68</ele>
        <time>2015-12-12T10:36:00Z</time>
      </trkpt>
      <trkpt lat="44.02999" lon="5.18361">
        <ele>331.31</ele>
        <time>2015-12-12T10:36:11Z</time>
      </trkpt>
      <trkpt lat="44.03015" lon="5.18355">
        <ele>329.39</ele>
        <time>2015-12-12T10:36:16Z</time>
      </trkpt>
      <trkpt lat="44.03046" lon="5.18341">
        <ele>327.47</ele>
        <time>2015-12-12T10:36:25Z</time>
      </trkpt>
      <trkpt lat="44.03074" lon="5.18335">
        <ele>326.99</ele>
        <time>2015-12-12T10:36:34Z</time>
      </trkpt>
      <trkpt lat="44.03111" lon="5.18326">
        <ele>327.47</ele>
        <time>2015-12-12T10:36:46Z</time>
      </trkpt>
      <trkpt lat="44.03123" lon="5.18287">
        <ele>324.58</ele>
        <time>2015-12-12T10:36:55Z</time>
      </trkpt>
      <trkpt lat="44.03125" lon="5.18275">
        <ele>323.14</ele>
        <time>2015-12-12T10:36:58Z</time>
      </trkpt>
      <trkpt lat="44.03131" lon="5.18261">
        <ele>319.78</ele>
        <time>2015-12-12T10:37:02Z</time>
      </trkpt>
      <trkpt lat="44.03134" lon="5.18249">
        <ele>318.33</ele>
        <time>2015-12-12T10:37:05Z</time>
      </trkpt>
      <trkpt lat="44.03128" lon="5.1823">
        <ele>316.41</ele>
        <time>2015-12-12T10:37:10Z</time>
      </trkpt>
      <trkpt lat="44.03115" lon="5.18192">
        <ele>314.97</ele>
        <time>2015-12-12T10:37:21Z</time>
      </trkpt>
      <trkpt lat="44.03122" lon="5.18154">
        <ele>312.57</ele>
        <time>2015-12-12T10:37:31Z</time>
      </trkpt>
      <trkpt lat="44.03125" lon="5.18134">
        <ele>312.57</ele>
        <time>2015-12-12T10:37:37Z</time>
      </trkpt>
      <trkpt lat="44.0313" lon="5.1811">
        <ele>311.6</ele>
        <time>2015-12-12T10:37:44Z</time>
      </trkpt>
      <trkpt lat="44.03135" lon="5.18068">
        <ele>309.2</ele>
        <time>2015-12-12T10:37:56Z</time>
      </trkpt>
      <trkpt lat="44.03135" lon="5.18047">
        <ele>307.76</ele>
        <time>2015-12-12T10:38:01Z</time>
      </trkpt>
      <trkpt lat="44.03134" lon="5.18007">
        <ele>305.36</ele>
        <time>2015-12-12T10:38:10Z</time>
      </trkpt>
      <trkpt lat="44.03129" lon="5.17979">
        <ele>301.99</ele>
        <time>2015-12-12T10:38:16Z</time>
      </trkpt>
      <trkpt lat="44.03129" lon="5.17955">
        <ele>299.11</ele>
        <time>2015-12-12T10:38:21Z</time>
      </trkpt>
      <trkpt lat="44.03128" lon="5.17951">
        <ele>298.63</ele>
        <time>2015-12-12T10:38:22Z</time>
      </trkpt>
      <trkpt lat="44.03125" lon="5.17932">
        <ele>297.18</ele>
        <time>2015-12-12T10:38:27Z</time>
      </trkpt>
      <trkpt lat="44.03123" lon="5.17906">
        <ele>294.78</ele>
        <time>2015-12-12T10:38:32Z</time>
      </trkpt>
      <trkpt lat="44.03112" lon="5.17858">
        <ele>292.38</ele>
        <time>2015-12-12T10:38:44Z</time>
      </trkpt>
      <trkpt lat="44.03108" lon="5.17817">
        <ele>290.94</ele>
        <time>2015-12-12T10:38:54Z</time>
      </trkpt>
      <trkpt lat="44.03108" lon="5.17814">
        <ele>290.94</ele>
        <time>2015-12-12T10:38:55Z</time>
      </trkpt>
      <trkpt lat="44.03104" lon="5.17789">
        <ele>289.49</ele>
        <time>2015-12-12T10:39:02Z</time>
      </trkpt>
      <trkpt lat="44.03103" lon="5.17782">
        <ele>289.49</ele>
        <time>2015-12-12T10:39:04Z</time>
      </trkpt>
      <trkpt lat="44.03101" lon="5.17773">
        <ele>289.49</ele>
        <time>2015-12-12T10:39:06Z</time>
      </trkpt>
      <trkpt lat="44.03109" lon="5.17729">
        <ele>287.57</ele>
        <time>2015-12-12T10:39:16Z</time>
      </trkpt>
      <trkpt lat="44.03116" lon="5.17698">
        <ele>286.13</ele>
        <time>2015-12-12T10:39:24Z</time>
      </trkpt>
      <trkpt lat="44.03114" lon="5.17683">
        <ele>287.09</ele>
        <time>2015-12-12T10:39:32Z</time>
      </trkpt>
      <trkpt lat="44.03112" lon="5.17662">
        <ele>288.53</ele>
        <time>2015-12-12T10:39:42Z</time>
      </trkpt>
      <trkpt lat="44.03115" lon="5.17648">
        <ele>288.53</ele>
        <time>2015-12-12T10:39:47Z</time>
      </trkpt>
      <trkpt lat="44.03116" lon="5.17612">
        <ele>288.53</ele>
        <time>2015-12-12T10:39:57Z</time>
      </trkpt>
      <trkpt lat="44.03128" lon="5.17585">
        <ele>287.09</ele>
        <time>2015-12-12T10:40:06Z</time>
      </trkpt>
      <trkpt lat="44.03144" lon="5.17581">
        <ele>284.69</ele>
        <time>2015-12-12T10:40:11Z</time>
      </trkpt>
      <trkpt lat="44.03152" lon="5.17569">
        <ele>282.28</ele>
        <time>2015-12-12T10:40:15Z</time>
      </trkpt>
      <trkpt lat="44.03155" lon="5.17548">
        <ele>281.32</ele>
        <time>2015-12-12T10:40:21Z</time>
      </trkpt>
      <trkpt lat="44.03163" lon="5.17527">
        <ele>279.4</ele>
        <time>2015-12-12T10:40:28Z</time>
      </trkpt>
      <trkpt lat="44.03176" lon="5.17495">
        <ele>277</ele>
        <time>2015-12-12T10:40:37Z</time>
      </trkpt>
      <trkpt lat="44.03164" lon="5.1747">
        <ele>277.96</ele>
        <time>2015-12-12T10:40:48Z</time>
      </trkpt>
      <trkpt lat="44.03162" lon="5.17465">
        <ele>278.44</ele>
        <time>2015-12-12T10:40:51Z</time>
      </trkpt>
      <trkpt lat="44.03159" lon="5.17461">
        <ele>277.96</ele>
        <time>2015-12-12T10:40:52Z</time>
      </trkpt>
      <trkpt lat="44.0315" lon="5.17436">
        <ele>278.44</ele>
        <time>2015-12-12T10:41:00Z</time>
      </trkpt>
      <trkpt lat="44.03149" lon="5.17423">
        <ele>277.48</ele>
        <time>2015-12-12T10:41:03Z</time>
      </trkpt>
      <trkpt lat="44.03146" lon="5.17411">
        <ele>276.04</ele>
        <time>2015-12-12T10:41:05Z</time>
      </trkpt>
      <trkpt lat="44.03134" lon="5.17394">
        <ele>275.56</ele>
        <time>2015-12-12T10:41:12Z</time>
      </trkpt>
      <trkpt lat="44.03126" lon="5.17403">
        <ele>277</ele>
        <time>2015-12-12T10:41:18Z</time>
      </trkpt>
      <trkpt lat="44.03122" lon="5.17405">
        <ele>278.44</ele>
        <time>2015-12-12T10:41:20Z</time>
      </trkpt>
      <trkpt lat="44.0312" lon="5.17407">
        <ele>278.44</ele>
        <time>2015-12-12T10:41:21Z</time>
      </trkpt>
      <trkpt lat="44.031" lon="5.174">
        <ele>278.92</ele>
        <time>2015-12-12T10:41:32Z</time>
      </trkpt>
      <trkpt lat="44.03093" lon="5.17398">
        <ele>280.36</ele>
        <time>2015-12-12T10:41:35Z</time>
      </trkpt>
      <trkpt lat="44.03089" lon="5.17394">
        <ele>279.88</ele>
        <time>2015-12-12T10:41:38Z</time>
      </trkpt>
      <trkpt lat="44.03085" lon="5.17382">
        <ele>279.88</ele>
        <time>2015-12-12T10:41:43Z</time>
      </trkpt>
      <trkpt lat="44.03088" lon="5.17368">
        <ele>280.36</ele>
        <time>2015-12-12T10:41:49Z</time>
      </trkpt>
      <trkpt lat="44.03083" lon="5.17358">
        <ele>281.8</ele>
        <time>2015-12-12T10:41:52Z</time>
      </trkpt>
      <trkpt lat="44.03078" lon="5.17344">
        <ele>282.28</ele>
        <time>2015-12-12T10:41:56Z</time>
      </trkpt>
      <trkpt lat="44.03075" lon="5.17325">
        <ele>282.28</ele>
        <time>2015-12-12T10:42:00Z</time>
      </trkpt>
      <trkpt lat="44.03069" lon="5.17303">
        <ele>282.77</ele>
        <time>2015-12-12T10:42:07Z</time>
      </trkpt>
      <trkpt lat="44.03069" lon="5.17293">
        <ele>281.32</ele>
        <time>2015-12-12T10:42:10Z</time>
      </trkpt>
      <trkpt lat="44.03068" lon="5.17288">
        <ele>281.32</ele>
        <time>2015-12-12T10:42:11Z</time>
      </trkpt>
      <trkpt lat="44.03064" lon="5.17279">
        <ele>281.32</ele>
        <time>2015-12-12T10:42:13Z</time>
      </trkpt>
      <trkpt lat="44.0307" lon="5.17248">
        <ele>277</ele>
        <time>2015-12-12T10:42:21Z</time>
      </trkpt>
      <trkpt lat="44.03073" lon="5.17245">
        <ele>277</ele>
        <time>2015-12-12T10:42:22Z</time>
      </trkpt>
      <trkpt lat="44.03078" lon="5.17238">
        <ele>275.56</ele>
        <time>2015-12-12T10:42:25Z</time>
      </trkpt>
      <trkpt lat="44.03079" lon="5.17235">
        <ele>274.59</ele>
        <time>2015-12-12T10:42:26Z</time>
      </trkpt>
      <trkpt lat="44.03084" lon="5.17217">
        <ele>270.75</ele>
        <time>2015-12-12T10:42:33Z</time>
      </trkpt>
      <trkpt lat="44.03087" lon="5.17208">
        <ele>268.83</ele>
        <time>2015-12-12T10:42:36Z</time>
      </trkpt>
      <trkpt lat="44.03092" lon="5.17179">
        <ele>265.94</ele>
        <time>2015-12-12T10:42:43Z</time>
      </trkpt>
      <trkpt lat="44.03094" lon="5.17164">
        <ele>266.9</ele>
        <time>2015-12-12T10:42:48Z</time>
      </trkpt>
      <trkpt lat="44.03082" lon="5.1712">
        <ele>268.35</ele>
        <time>2015-12-12T10:43:00Z</time>
      </trkpt>
      <trkpt lat="44.03083" lon="5.17101">
        <ele>267.86</ele>
        <time>2015-12-12T10:43:04Z</time>
      </trkpt>
      <trkpt lat="44.03083" lon="5.17084">
        <ele>267.86</ele>
        <time>2015-12-12T10:43:08Z</time>
      </trkpt>
      <trkpt lat="44.03083" lon="5.17065">
        <ele>266.42</ele>
        <time>2015-12-12T10:43:13Z</time>
      </trkpt>
      <trkpt lat="44.0307" lon="5.17042">
        <ele>262.58</ele>
        <time>2015-12-12T10:43:21Z</time>
      </trkpt>
      <trkpt lat="44.03067" lon="5.17043">
        <ele>262.58</ele>
        <time>2015-12-12T10:43:22Z</time>
      </trkpt>
      <trkpt lat="44.03055" lon="5.17041">
        <ele>259.69</ele>
        <time>2015-12-12T10:43:27Z</time>
      </trkpt>
      <trkpt lat="44.03053" lon="5.17021">
        <ele>256.81</ele>
        <time>2015-12-12T10:43:33Z</time>
      </trkpt>
      <trkpt lat="44.03066" lon="5.16998">
        <ele>255.85</ele>
        <time>2015-12-12T10:43:43Z</time>
      </trkpt>
      <trkpt lat="44.03086" lon="5.16985">
        <ele>252.96</ele>
        <time>2015-12-12T10:43:53Z</time>
      </trkpt>
      <trkpt lat="44.03085" lon="5.16984">
        <ele>252.48</ele>
        <time>2015-12-12T10:43:54Z</time>
      </trkpt>
      <trkpt lat="44.03072" lon="5.16979">
        <ele>250.08</ele>
        <time>2015-12-12T10:44:02Z</time>
      </trkpt>
      <trkpt lat="44.0307" lon="5.1698">
        <ele>250.08</ele>
        <time>2015-12-12T10:44:04Z</time>
      </trkpt>
      <trkpt lat="44.03065" lon="5.1698">
        <ele>248.64</ele>
        <time>2015-12-12T10:44:07Z</time>
      </trkpt>
      <trkpt lat="44.03064" lon="5.16968">
        <ele>247.2</ele>
        <time>2015-12-12T10:44:12Z</time>
      </trkpt>
      <trkpt lat="44.03072" lon="5.16962">
        <ele>245.27</ele>
        <time>2015-12-12T10:44:17Z</time>
      </trkpt>
      <trkpt lat="44.03082" lon="5.16961">
        <ele>243.35</ele>
        <time>2015-12-12T10:44:26Z</time>
      </trkpt>
      <trkpt lat="44.03076" lon="5.1694">
        <ele>240.95</ele>
        <time>2015-12-12T10:44:34Z</time>
      </trkpt>
      <trkpt lat="44.0308" lon="5.16925">
        <ele>239.51</ele>
        <time>2015-12-12T10:44:38Z</time>
      </trkpt>
      <trkpt lat="44.03074" lon="5.16908">
        <ele>237.1</ele>
        <time>2015-12-12T10:44:42Z</time>
      </trkpt>
      <trkpt lat="44.03055" lon="5.16869">
        <ele>235.18</ele>
        <time>2015-12-12T10:44:54Z</time>
      </trkpt>
      <trkpt lat="44.0303" lon="5.16842">
        <ele>233.74</ele>
        <time>2015-12-12T10:45:04Z</time>
      </trkpt>
      <trkpt lat="44.03026" lon="5.16836">
        <ele>233.26</ele>
        <time>2015-12-12T10:45:13Z</time>
      </trkpt>
      <trkpt lat="44.03022" lon="5.1682">
        <ele>232.3</ele>
        <time>2015-12-12T10:45:24Z</time>
      </trkpt>
      <trkpt lat="44.03016" lon="5.16818">
        <ele>232.78</ele>
        <time>2015-12-12T10:45:29Z</time>
      </trkpt>
      <trkpt lat="44.03009" lon="5.16818">
        <ele>232.78</ele>
        <time>2015-12-12T10:45:34Z</time>
      </trkpt>
      <trkpt lat="44.03002" lon="5.16815">
        <ele>232.3</ele>
        <time>2015-12-12T10:45:40Z</time>
      </trkpt>
      <trkpt lat="44.02986" lon="5.16814">
        <ele>231.33</ele>
        <time>2015-12-12T10:45:54Z</time>
      </trkpt>
      <trkpt lat="44.02977" lon="5.16811">
        <ele>231.81</ele>
        <time>2015-12-12T10:46:02Z</time>
      </trkpt>
      <trkpt lat="44.0297" lon="5.16795">
        <ele>232.78</ele>
        <time>2015-12-12T10:46:08Z</time>
      </trkpt>
      <trkpt lat="44.02955" lon="5.16783">
        <ele>234.22</ele>
        <time>2015-12-12T10:46:17Z</time>
      </trkpt>
      <trkpt lat="44.02952" lon="5.16785">
        <ele>235.18</ele>
        <time>2015-12-12T10:46:19Z</time>
      </trkpt>
      <trkpt lat="44.02948" lon="5.16785">
        <ele>235.18</ele>
        <time>2015-12-12T10:46:21Z</time>
      </trkpt>
      <trkpt lat="44.02935" lon="5.16781">
        <ele>236.14</ele>
        <time>2015-12-12T10:46:26Z</time>
      </trkpt>
      <trkpt lat="44.02927" lon="5.1677">
        <ele>235.66</ele>
        <time>2015-12-12T10:46:31Z</time>
      </trkpt>
      <trkpt lat="44.0292" lon="5.16764">
        <ele>234.7</ele>
        <time>2015-12-12T10:46:34Z</time>
      </trkpt>
      <trkpt lat="44.02907" lon="5.16757">
        <ele>234.7</ele>
        <time>2015-12-12T10:46:39Z</time>
      </trkpt>
      <trkpt lat="44.02879" lon="5.16737">
        <ele>231.33</ele>
        <time>2015-12-12T10:46:49Z</time>
      </trkpt>
      <trkpt lat="44.02876" lon="5.16735">
        <ele>231.33</ele>
        <time>2015-12-12T10:46:50Z</time>
      </trkpt>
      <trkpt lat="44.02843" lon="5.16728">
        <ele>229.41</ele>
        <time>2015-12-12T10:47:00Z</time>
      </trkpt>
      <trkpt lat="44.02817" lon="5.16728">
        <ele>227.97</ele>
        <time>2015-12-12T10:47:09Z</time>
      </trkpt>
      <trkpt lat="44.02784" lon="5.16729">
        <ele>228.93</ele>
        <time>2015-12-12T10:47:21Z</time>
      </trkpt>
      <trkpt lat="44.02754" lon="5.16713">
        <ele>227.97</ele>
        <time>2015-12-12T10:47:32Z</time>
      </trkpt>
      <trkpt lat="44.02724" lon="5.16692">
        <ele>226.05</ele>
        <time>2015-12-12T10:47:42Z</time>
      </trkpt>
      <trkpt lat="44.02714" lon="5.16681">
        <ele>225.09</ele>
        <time>2015-12-12T10:47:46Z</time>
      </trkpt>
      <trkpt lat="44.02697" lon="5.16654">
        <ele>222.2</ele>
        <time>2015-12-12T10:47:54Z</time>
      </trkpt>
      <trkpt lat="44.02679" lon="5.16633">
        <ele>218.84</ele>
        <time>2015-12-12T10:48:02Z</time>
      </trkpt>
      <trkpt lat="44.02651" lon="5.16624">
        <ele>216.91</ele>
        <time>2015-12-12T10:48:12Z</time>
      </trkpt>
      <trkpt lat="44.0262" lon="5.16619">
        <ele>217.4</ele>
        <time>2015-12-12T10:48:22Z</time>
      </trkpt>
      <trkpt lat="44.02592" lon="5.16616">
        <ele>217.4</ele>
        <time>2015-12-12T10:48:32Z</time>
      </trkpt>
      <trkpt lat="44.02567" lon="5.1661">
        <ele>215.47</ele>
        <time>2015-12-12T10:48:40Z</time>
      </trkpt>
      <trkpt lat="44.02538" lon="5.16603">
        <ele>214.51</ele>
        <time>2015-12-12T10:48:50Z</time>
      </trkpt>
      <trkpt lat="44.0253" lon="5.16597">
        <ele>214.51</ele>
        <time>2015-12-12T10:48:53Z</time>
      </trkpt>
      <trkpt lat="44.02523" lon="5.16598">
        <ele>215.47</ele>
        <time>2015-12-12T10:48:57Z</time>
      </trkpt>
      <trkpt lat="44.02524" lon="5.16605">
        <ele>216.43</ele>
        <time>2015-12-12T10:49:00Z</time>
      </trkpt>
      <trkpt lat="44.02512" lon="5.16622">
        <ele>219.8</ele>
        <time>2015-12-12T10:49:09Z</time>
      </trkpt>
      <trkpt lat="44.02509" lon="5.16638">
        <ele>224.61</ele>
        <time>2015-12-12T10:49:23Z</time>
      </trkpt>
      <trkpt lat="44.02509" lon="5.16639">
        <ele>223.16</ele>
        <time>2015-12-12T10:49:35Z</time>
      </trkpt>
      <trkpt lat="44.02508" lon="5.16639">
        <ele>223.16</ele>
        <time>2015-12-12T10:49:42Z</time>
      </trkpt>
      <trkpt lat="44.02513" lon="5.16648">
        <ele>224.12</ele>
        <time>2015-12-12T10:49:50Z</time>
      </trkpt>
      <trkpt lat="44.02514" lon="5.16655">
        <ele>224.61</ele>
        <time>2015-12-12T10:49:54Z</time>
      </trkpt>
      <trkpt lat="44.02512" lon="5.16661">
        <ele>225.57</ele>
        <time>2015-12-12T10:49:58Z</time>
      </trkpt>
      <trkpt lat="44.0251" lon="5.16663">
        <ele>226.05</ele>
        <time>2015-12-12T10:50:00Z</time>
      </trkpt>
      <trkpt lat="44.02496" lon="5.16667">
        <ele>227.49</ele>
        <time>2015-12-12T10:50:10Z</time>
      </trkpt>
      <trkpt lat="44.02484" lon="5.16672">
        <ele>228.93</ele>
        <time>2015-12-12T10:50:22Z</time>
      </trkpt>
      <trkpt lat="44.02469" lon="5.16678">
        <ele>230.37</ele>
        <time>2015-12-12T10:50:33Z</time>
      </trkpt>
      <trkpt lat="44.02463" lon="5.16682">
        <ele>230.85</ele>
        <time>2015-12-12T10:50:42Z</time>
      </trkpt>
      <trkpt lat="44.02451" lon="5.16685">
        <ele>228.93</ele>
        <time>2015-12-12T10:50:48Z</time>
      </trkpt>
      <trkpt lat="44.02443" lon="5.16696">
        <ele>230.37</ele>
        <time>2015-12-12T10:50:53Z</time>
      </trkpt>
      <trkpt lat="44.02434" lon="5.16698">
        <ele>230.85</ele>
        <time>2015-12-12T10:50:57Z</time>
      </trkpt>
      <trkpt lat="44.0243" lon="5.16697">
        <ele>230.37</ele>
        <time>2015-12-12T10:50:59Z</time>
      </trkpt>
      <trkpt lat="44.02404" lon="5.16712">
        <ele>229.41</ele>
        <time>2015-12-12T10:51:10Z</time>
      </trkpt>
      <trkpt lat="44.02402" lon="5.16713">
        <ele>229.41</ele>
        <time>2015-12-12T10:51:11Z</time>
      </trkpt>
      <trkpt lat="44.02388" lon="5.16716">
        <ele>228.93</ele>
        <time>2015-12-12T10:51:16Z</time>
      </trkpt>
      <trkpt lat="44.02374" lon="5.16729">
        <ele>229.41</ele>
        <time>2015-12-12T10:51:22Z</time>
      </trkpt>
      <trkpt lat="44.02358" lon="5.16734">
        <ele>229.89</ele>
        <time>2015-12-12T10:51:27Z</time>
      </trkpt>
      <trkpt lat="44.02331" lon="5.16743">
        <ele>228.93</ele>
        <time>2015-12-12T10:51:36Z</time>
      </trkpt>
      <trkpt lat="44.02328" lon="5.16769">
        <ele>230.85</ele>
        <time>2015-12-12T10:51:45Z</time>
      </trkpt>
      <trkpt lat="44.02323" lon="5.16772">
        <ele>230.85</ele>
        <time>2015-12-12T10:51:47Z</time>
      </trkpt>
      <trkpt lat="44.02302" lon="5.16779">
        <ele>229.89</ele>
        <time>2015-12-12T10:51:54Z</time>
      </trkpt>
      <trkpt lat="44.02296" lon="5.16793">
        <ele>230.37</ele>
        <time>2015-12-12T10:51:59Z</time>
      </trkpt>
      <trkpt lat="44.02287" lon="5.16798">
        <ele>228.93</ele>
        <time>2015-12-12T10:52:03Z</time>
      </trkpt>
      <trkpt lat="44.02281" lon="5.16799">
        <ele>228.45</ele>
        <time>2015-12-12T10:52:05Z</time>
      </trkpt>
      <trkpt lat="44.02265" lon="5.16791">
        <ele>227.49</ele>
        <time>2015-12-12T10:52:12Z</time>
      </trkpt>
      <trkpt lat="44.02254" lon="5.16783">
        <ele>225.57</ele>
        <time>2015-12-12T10:52:16Z</time>
      </trkpt>
      <trkpt lat="44.02244" lon="5.16782">
        <ele>224.12</ele>
        <time>2015-12-12T10:52:19Z</time>
      </trkpt>
      <trkpt lat="44.02222" lon="5.16787">
        <ele>223.16</ele>
        <time>2015-12-12T10:52:26Z</time>
      </trkpt>
      <trkpt lat="44.02198" lon="5.16808">
        <ele>222.2</ele>
        <time>2015-12-12T10:52:36Z</time>
      </trkpt>
      <trkpt lat="44.02179" lon="5.16818">
        <ele>219.8</ele>
        <time>2015-12-12T10:52:43Z</time>
      </trkpt>
      <trkpt lat="44.02173" lon="5.16817">
        <ele>218.36</ele>
        <time>2015-12-12T10:52:45Z</time>
      </trkpt>
      <trkpt lat="44.02166" lon="5.16817">
        <ele>217.4</ele>
        <time>2015-12-12T10:52:48Z</time>
      </trkpt>
      <trkpt lat="44.02152" lon="5.16791">
        <ele>214.51</ele>
        <time>2015-12-12T10:52:58Z</time>
      </trkpt>
      <trkpt lat="44.02143" lon="5.16741">
        <ele>211.63</ele>
        <time>2015-12-12T10:53:10Z</time>
      </trkpt>
      <trkpt lat="44.02128" lon="5.16699">
        <ele>209.7</ele>
        <time>2015-12-12T10:53:20Z</time>
      </trkpt>
      <trkpt lat="44.02121" lon="5.16653">
        <ele>207.3</ele>
        <time>2015-12-12T10:53:30Z</time>
      </trkpt>
      <trkpt lat="44.02122" lon="5.16649">
        <ele>207.3</ele>
        <time>2015-12-12T10:53:31Z</time>
      </trkpt>
      <trkpt lat="44.02131" lon="5.16597">
        <ele>203.94</ele>
        <time>2015-12-12T10:53:44Z</time>
      </trkpt>
      <trkpt lat="44.02138" lon="5.16546">
        <ele>202.49</ele>
        <time>2015-12-12T10:53:55Z</time>
      </trkpt>
      <trkpt lat="44.02141" lon="5.16529">
        <ele>201.53</ele>
        <time>2015-12-12T10:54:00Z</time>
      </trkpt>
      <trkpt lat="44.02141" lon="5.16485">
        <ele>201.05</ele>
        <time>2015-12-12T10:54:11Z</time>
      </trkpt>
      <trkpt lat="44.02141" lon="5.16449">
        <ele>200.09</ele>
        <time>2015-12-12T10:54:20Z</time>
      </trkpt>
      <trkpt lat="44.02143" lon="5.16411">
        <ele>200.09</ele>
        <time>2015-12-12T10:54:30Z</time>
      </trkpt>
      <trkpt lat="44.02147" lon="5.16373">
        <ele>199.61</ele>
        <time>2015-12-12T10:54:39Z</time>
      </trkpt>
      <trkpt lat="44.02138" lon="5.16361">
        <ele>199.61</ele>
        <time>2015-12-12T10:54:44Z</time>
      </trkpt>
      <trkpt lat="44.02117" lon="5.16348">
        <ele>200.09</ele>
        <time>2015-12-12T10:54:53Z</time>
      </trkpt>
      <trkpt lat="44.02121" lon="5.16322">
        <ele>199.61</ele>
        <time>2015-12-12T10:55:00Z</time>
      </trkpt>
      <trkpt lat="44.02141" lon="5.1628">
        <ele>199.13</ele>
        <time>2015-12-12T10:55:12Z</time>
      </trkpt>
      <trkpt lat="44.02151" lon="5.16242">
        <ele>198.65</ele>
        <time>2015-12-12T10:55:22Z</time>
      </trkpt>
      <trkpt lat="44.02154" lon="5.16227">
        <ele>200.09</ele>
        <time>2015-12-12T10:55:26Z</time>
      </trkpt>
      <trkpt lat="44.02158" lon="5.16186">
        <ele>199.13</ele>
        <time>2015-12-12T10:55:37Z</time>
      </trkpt>
      <trkpt lat="44.0216" lon="5.16178">
        <ele>200.09</ele>
        <time>2015-12-12T10:55:49Z</time>
      </trkpt>
      <trkpt lat="44.02162" lon="5.16177">
        <ele>200.09</ele>
        <time>2015-12-12T10:56:08Z</time>
      </trkpt>
      <trkpt lat="44.02162" lon="5.16175">
        <ele>199.61</ele>
        <time>2015-12-12T10:56:19Z</time>
      </trkpt>
    </trkseg>
  </trk>
</gpx>